SWR221B LTFM-VRMM
Flight info
| Callsign | SWR221B |
|---|---|
| Flight time | N/A |
| Altitude | 37000 |
| Route | RATVU UT35 AYT UM855 TOMBI M855 RASDA A16 CVO A727 SEMRU M872 ALMOD DCT SILKA/N0490F390 M872 PMA Y214 RAPMA DCT DEGNO DCT DAPOL L692 GISKA N569 GOLNI P570 KITAL L894 BOLUR/N0484F410 L894 LELEM LELEM2A |
| Aircraft | A359/H-SDE2E3GHIJ3J4J5LM1ORWXY/LB1D1 |
Departure
| Time | 2026-02-20 08:03 |
|---|---|
| Airport | İstanbul Airport (LTFM) |
Arrival
| Time | N/A |
|---|---|
| Airport | Velana International Airport (VRMM) |
| Time | Latitude | Longitude | Altitude | Speed | Heading |
|---|---|---|---|---|---|
| 2026-02-20 07:48 | 41.26549 | 28.74370 | 340 ft | 0 kts | 263° |
| 2026-02-20 07:49 | 41.26548 | 28.74361 | 336 ft | 4 kts | 263° |
| 2026-02-20 07:50 | 41.26544 | 28.74320 | 337 ft | 4 kts | 263° |
| 2026-02-20 07:50 | 41.26540 | 28.74278 | 337 ft | 4 kts | 263° |
| 2026-02-20 07:50 | 41.26539 | 28.74269 | 338 ft | 2 kts | 263° |
| 2026-02-20 07:50 | 41.26541 | 28.74293 | 336 ft | 3 kts | 264° |
| 2026-02-20 07:51 | 41.26543 | 28.74320 | 336 ft | 3 kts | 265° |
| 2026-02-20 07:51 | 41.26545 | 28.74347 | 336 ft | 3 kts | 266° |
| 2026-02-20 07:51 | 41.26546 | 28.74374 | 340 ft | 3 kts | 266° |
| 2026-02-20 07:51 | 41.26547 | 28.74401 | 335 ft | 3 kts | 266° |
| 2026-02-20 07:52 | 41.26548 | 28.74423 | 335 ft | 2 kts | 264° |
| 2026-02-20 07:52 | 41.26551 | 28.74445 | 335 ft | 3 kts | 241° |
| 2026-02-20 07:52 | 41.26559 | 28.74461 | 335 ft | 3 kts | 210° |
| 2026-02-20 07:52 | 41.26574 | 28.74470 | 335 ft | 3 kts | 187° |
| 2026-02-20 07:53 | 41.26594 | 28.74472 | 335 ft | 2 kts | 179° |
| 2026-02-20 07:53 | 41.26602 | 28.74472 | 335 ft | 2 kts | 179° |
| 2026-02-20 07:53 | 41.26583 | 28.74472 | 335 ft | 0 kts | 179° |
| 2026-02-20 07:54 | 41.26559 | 28.74490 | 335 ft | 7 kts | 132° |
| 2026-02-20 07:55 | 41.26568 | 28.74524 | 337 ft | 3 kts | 32° |
| 2026-02-20 07:55 | 41.26619 | 28.74537 | 337 ft | 12 kts | 8° |
| 2026-02-20 07:55 | 41.26729 | 28.74538 | 335 ft | 20 kts | 359° |
| 2026-02-20 07:55 | 41.26889 | 28.74585 | 337 ft | 27 kts | 11° |
| 2026-02-20 07:56 | 41.27098 | 28.74596 | 338 ft | 32 kts | 347° |
| 2026-02-20 07:56 | 41.27144 | 28.74377 | 340 ft | 26 kts | 268° |
| 2026-02-20 07:56 | 41.27143 | 28.74133 | 340 ft | 26 kts | 269° |
| 2026-02-20 07:56 | 41.27144 | 28.73891 | 340 ft | 27 kts | 270° |
| 2026-02-20 07:57 | 41.27145 | 28.73643 | 336 ft | 27 kts | 270° |
| 2026-02-20 07:57 | 41.27136 | 28.73396 | 337 ft | 27 kts | 264° |
| 2026-02-20 07:57 | 41.27132 | 28.73153 | 335 ft | 25 kts | 284° |
| 2026-02-20 07:57 | 41.27251 | 28.73098 | 335 ft | 19 kts | 358° |
| 2026-02-20 07:58 | 41.27387 | 28.73089 | 337 ft | 20 kts | 359° |
| 2026-02-20 07:58 | 41.27533 | 28.73085 | 338 ft | 21 kts | 354° |
| 2026-02-20 07:58 | 41.27633 | 28.72979 | 337 ft | 18 kts | 347° |
| 2026-02-20 07:58 | 41.27749 | 28.72975 | 336 ft | 17 kts | 352° |
| 2026-02-20 07:59 | 41.27875 | 28.72966 | 336 ft | 19 kts | 359° |
| 2026-02-20 07:59 | 41.28009 | 28.72963 | 340 ft | 19 kts | 3° |
| 2026-02-20 07:59 | 41.28143 | 28.72957 | 336 ft | 19 kts | 355° |
| 2026-02-20 07:59 | 41.28276 | 28.72956 | 336 ft | 20 kts | 355° |
| 2026-02-20 08:00 | 41.28409 | 28.72953 | 338 ft | 19 kts | 357° |
| 2026-02-20 08:00 | 41.28543 | 28.72948 | 338 ft | 19 kts | 358° |
| 2026-02-20 08:00 | 41.28679 | 28.72946 | 336 ft | 20 kts | 360° |
| 2026-02-20 08:00 | 41.28822 | 28.72948 | 337 ft | 21 kts | 2° |
| 2026-02-20 08:01 | 41.28972 | 28.72939 | 336 ft | 22 kts | 3° |
| 2026-02-20 08:01 | 41.29128 | 28.72936 | 336 ft | 23 kts | 358° |
| 2026-02-20 08:01 | 41.29293 | 28.72927 | 335 ft | 24 kts | 359° |
| 2026-02-20 08:01 | 41.29462 | 28.72914 | 335 ft | 23 kts | 329° |
| 2026-02-20 08:02 | 41.29470 | 28.72735 | 335 ft | 18 kts | 217° |
| 2026-02-20 08:02 | 41.29351 | 28.72717 | 336 ft | 17 kts | 177° |
| 2026-02-20 08:02 | 41.29079 | 28.72719 | 338 ft | 77 kts | 180° |
| 2026-02-20 08:02 | 41.28276 | 28.72729 | 338 ft | 151 kts | 177° |
| 2026-02-20 08:03 | 41.27066 | 28.72755 | 722 ft | 188 kts | 182° |
| 2026-02-20 08:03 | 41.25679 | 28.72724 | 1549 ft | 208 kts | 184° |
| 2026-02-20 08:03 | 41.24128 | 28.72724 | 2483 ft | 235 kts | 184° |
| 2026-02-20 08:03 | 41.22516 | 28.72776 | 3529 ft | 227 kts | 183° |
| 2026-02-20 08:04 | 41.20923 | 28.72830 | 4080 ft | 231 kts | 184° |
| 2026-02-20 08:04 | 41.19306 | 28.72853 | 4582 ft | 233 kts | 188° |
| 2026-02-20 08:04 | 41.17772 | 28.72317 | 5061 ft | 233 kts | 211° |
| 2026-02-20 08:04 | 41.16461 | 28.71015 | 5485 ft | 239 kts | 223° |
| 2026-02-20 08:05 | 41.15233 | 28.69507 | 6049 ft | 242 kts | 224° |
| 2026-02-20 08:05 | 41.14000 | 28.67959 | 6598 ft | 246 kts | 224° |
| 2026-02-20 08:05 | 41.12635 | 28.66568 | 7121 ft | 251 kts | 210° |
| 2026-02-20 08:05 | 41.10971 | 28.65886 | 7716 ft | 257 kts | 188° |
| 2026-02-20 08:06 | 41.09154 | 28.65985 | 8324 ft | 262 kts | 178° |
| 2026-02-20 08:06 | 41.07334 | 28.66315 | 8891 ft | 266 kts | 176° |
| 2026-02-20 08:06 | 41.05516 | 28.66673 | 9479 ft | 269 kts | 177° |
| 2026-02-20 08:06 | 41.03660 | 28.67029 | 10076 ft | 271 kts | 177° |
| 2026-02-20 08:07 | 41.01754 | 28.67380 | 10399 ft | 284 kts | 177° |
| 2026-02-20 08:07 | 40.99748 | 28.67735 | 10635 ft | 298 kts | 177° |
| 2026-02-20 08:07 | 40.97641 | 28.68107 | 10851 ft | 312 kts | 177° |
| 2026-02-20 08:07 | 40.95461 | 28.68715 | 11066 ft | 331 kts | 166° |
| 2026-02-20 08:08 | 40.93374 | 28.70214 | 11247 ft | 355 kts | 146° |
| 2026-02-20 08:08 | 40.91740 | 28.72783 | 11409 ft | 379 kts | 123° |
| 2026-02-20 08:08 | 40.90960 | 28.75641 | 11650 ft | 394 kts | 104° |
| 2026-02-20 08:08 | 40.90767 | 28.79284 | 12064 ft | 401 kts | 93° |
| 2026-02-20 08:09 | 40.90769 | 28.82997 | 12482 ft | 405 kts | 92° |
| 2026-02-20 08:09 | 40.90560 | 28.86652 | 12882 ft | 405 kts | 104° |
| 2026-02-20 08:09 | 40.89846 | 28.90245 | 13306 ft | 405 kts | 110° |
| 2026-02-20 08:09 | 40.89003 | 28.93810 | 13725 ft | 408 kts | 111° |
| 2026-02-20 08:10 | 40.88133 | 28.97395 | 14129 ft | 411 kts | 111° |
| 2026-02-20 08:10 | 40.87260 | 29.01002 | 14509 ft | 414 kts | 111° |
| 2026-02-20 08:10 | 40.86381 | 29.04642 | 14898 ft | 416 kts | 111° |
| 2026-02-20 08:10 | 40.85500 | 29.08290 | 15279 ft | 419 kts | 111° |
| 2026-02-20 08:11 | 40.84611 | 29.11971 | 15668 ft | 422 kts | 111° |
| 2026-02-20 08:11 | 40.83717 | 29.15672 | 16048 ft | 424 kts | 111° |
| 2026-02-20 08:11 | 40.82829 | 29.19344 | 16428 ft | 427 kts | 111° |
| 2026-02-20 08:11 | 40.81784 | 29.23012 | 16783 ft | 426 kts | 120° |
| 2026-02-20 08:12 | 40.80102 | 29.26162 | 17145 ft | 419 kts | 139° |
| 2026-02-20 08:12 | 40.77783 | 29.28421 | 17521 ft | 411 kts | 158° |
| 2026-02-20 08:12 | 40.75148 | 29.29813 | 17910 ft | 408 kts | 166° |
| 2026-02-20 08:12 | 40.72439 | 29.30915 | 18262 ft | 407 kts | 171° |
| 2026-02-20 08:13 | 40.69650 | 29.31381 | 18601 ft | 402 kts | 185° |
| 2026-02-20 08:13 | 40.66906 | 29.30930 | 18944 ft | 395 kts | 198° |
| 2026-02-20 08:13 | 40.64296 | 29.29845 | 19329 ft | 393 kts | 203° |
| 2026-02-20 08:13 | 40.61711 | 29.28630 | 19679 ft | 395 kts | 203° |
| 2026-02-20 08:14 | 40.59162 | 29.27431 | 20000 ft | 396 kts | 203° |
| 2026-02-20 08:14 | 40.56551 | 29.26217 | 20320 ft | 398 kts | 204° |
| 2026-02-20 08:14 | 40.53936 | 29.25001 | 20687 ft | 399 kts | 203° |
| 2026-02-20 08:14 | 40.51312 | 29.23800 | 21030 ft | 400 kts | 202° |
| 2026-02-20 08:15 | 40.48680 | 29.22600 | 21350 ft | 402 kts | 202° |
| 2026-02-20 08:15 | 40.46029 | 29.21392 | 21684 ft | 404 kts | 202° |
| 2026-02-20 08:15 | 40.43367 | 29.20181 | 22011 ft | 406 kts | 202° |
| 2026-02-20 08:15 | 40.40693 | 29.18967 | 22351 ft | 407 kts | 202° |
| 2026-02-20 08:16 | 40.38001 | 29.17932 | 22672 ft | 412 kts | 196° |
| 2026-02-20 08:16 | 40.35128 | 29.17496 | 22990 ft | 420 kts | 185° |
| 2026-02-20 08:16 | 40.32228 | 29.17845 | 23281 ft | 430 kts | 173° |
| 2026-02-20 08:16 | 40.29330 | 29.18964 | 23586 ft | 438 kts | 165° |
| 2026-02-20 08:17 | 40.26466 | 29.20373 | 23875 ft | 441 kts | 164° |
| 2026-02-20 08:17 | 40.23600 | 29.21809 | 24142 ft | 443 kts | 164° |
| 2026-02-20 08:17 | 40.20718 | 29.23238 | 24399 ft | 444 kts | 165° |
| 2026-02-20 08:17 | 40.17818 | 29.24664 | 24658 ft | 446 kts | 165° |
| 2026-02-20 08:18 | 40.14944 | 29.26068 | 24906 ft | 447 kts | 165° |
| 2026-02-20 08:18 | 40.12022 | 29.27491 | 25172 ft | 449 kts | 165° |
| 2026-02-20 08:18 | 40.09093 | 29.28914 | 25411 ft | 450 kts | 165° |
| 2026-02-20 08:18 | 40.06152 | 29.30340 | 25651 ft | 452 kts | 165° |
| 2026-02-20 08:19 | 40.03197 | 29.31772 | 25897 ft | 454 kts | 165° |
| 2026-02-20 08:19 | 40.00233 | 29.33207 | 26149 ft | 456 kts | 165° |
| 2026-02-20 08:19 | 39.97253 | 29.34648 | 26410 ft | 457 kts | 165° |
| 2026-02-20 08:19 | 39.94267 | 29.36089 | 26672 ft | 459 kts | 165° |
| 2026-02-20 08:20 | 39.91261 | 29.37540 | 26955 ft | 460 kts | 165° |
| 2026-02-20 08:20 | 39.88262 | 29.39018 | 27230 ft | 463 kts | 163° |
| 2026-02-20 08:20 | 39.85311 | 29.40597 | 27502 ft | 466 kts | 162° |
| 2026-02-20 08:20 | 39.82326 | 29.42268 | 27772 ft | 468 kts | 161° |
| 2026-02-20 08:21 | 39.79331 | 29.43965 | 28044 ft | 470 kts | 161° |
| 2026-02-20 08:21 | 39.76321 | 29.45665 | 28315 ft | 472 kts | 161° |
| 2026-02-20 08:21 | 39.73299 | 29.47356 | 28580 ft | 474 kts | 162° |
| 2026-02-20 08:21 | 39.70262 | 29.49039 | 28826 ft | 476 kts | 162° |
| 2026-02-20 08:22 | 39.67206 | 29.50721 | 29099 ft | 477 kts | 162° |
| 2026-02-20 08:22 | 39.64142 | 29.52398 | 29370 ft | 479 kts | 162° |
| 2026-02-20 08:22 | 39.61096 | 29.54029 | 29611 ft | 480 kts | 163° |
| 2026-02-20 08:22 | 39.57977 | 29.55606 | 29896 ft | 482 kts | 164° |
| 2026-02-20 08:23 | 39.54835 | 29.57149 | 30168 ft | 483 kts | 164° |
| 2026-02-20 08:23 | 39.51682 | 29.58686 | 30412 ft | 485 kts | 164° |
| 2026-02-20 08:23 | 39.48522 | 29.60229 | 30626 ft | 487 kts | 164° |
| 2026-02-20 08:23 | 39.45350 | 29.61789 | 30889 ft | 488 kts | 164° |
| 2026-02-20 08:24 | 39.42175 | 29.63360 | 31225 ft | 488 kts | 164° |
| 2026-02-20 08:24 | 39.39007 | 29.64932 | 31542 ft | 488 kts | 164° |
| 2026-02-20 08:24 | 39.35841 | 29.66506 | 31837 ft | 487 kts | 164° |
| 2026-02-20 08:24 | 39.32718 | 29.68058 | 32122 ft | 487 kts | 164° |
| 2026-02-20 08:25 | 39.29558 | 29.69627 | 32411 ft | 487 kts | 164° |
| 2026-02-20 08:25 | 39.26394 | 29.71196 | 32711 ft | 487 kts | 164° |
| 2026-02-20 08:25 | 39.23233 | 29.72761 | 32997 ft | 487 kts | 164° |
| 2026-02-20 08:25 | 39.20071 | 29.74325 | 33263 ft | 487 kts | 164° |
| 2026-02-20 08:26 | 39.16912 | 29.75885 | 33542 ft | 487 kts | 164° |
| 2026-02-20 08:26 | 39.13750 | 29.77445 | 33801 ft | 486 kts | 164° |
| 2026-02-20 08:26 | 39.10584 | 29.79005 | 34067 ft | 486 kts | 164° |
| 2026-02-20 08:26 | 39.07470 | 29.80539 | 34318 ft | 486 kts | 164° |
| 2026-02-20 08:27 | 39.04314 | 29.82092 | 34544 ft | 486 kts | 164° |
| 2026-02-20 08:27 | 39.01155 | 29.83646 | 34764 ft | 486 kts | 165° |
| 2026-02-20 08:27 | 38.98002 | 29.85195 | 34974 ft | 485 kts | 165° |
| 2026-02-20 08:27 | 38.94849 | 29.86741 | 35183 ft | 485 kts | 165° |
| 2026-02-20 08:28 | 38.91696 | 29.88286 | 35402 ft | 485 kts | 165° |
| 2026-02-20 08:28 | 38.88542 | 29.89831 | 35592 ft | 485 kts | 165° |
| 2026-02-20 08:28 | 38.85392 | 29.91362 | 35801 ft | 484 kts | 165° |
| 2026-02-20 08:28 | 38.82234 | 29.92867 | 35987 ft | 484 kts | 166° |
| 2026-02-20 08:29 | 38.79118 | 29.94340 | 36190 ft | 484 kts | 166° |
| 2026-02-20 08:29 | 38.75958 | 29.95829 | 36375 ft | 484 kts | 166° |
| 2026-02-20 08:29 | 38.72805 | 29.97317 | 36580 ft | 483 kts | 166° |
| 2026-02-20 08:29 | 38.69647 | 29.98808 | 36749 ft | 483 kts | 166° |
| 2026-02-20 08:30 | 38.66493 | 30.00299 | 36916 ft | 483 kts | 166° |
| 2026-02-20 08:30 | 38.63338 | 30.01791 | 37090 ft | 483 kts | 166° |
| 2026-02-20 08:30 | 38.60184 | 30.03282 | 37253 ft | 484 kts | 166° |
| 2026-02-20 08:30 | 38.57017 | 30.04776 | 37256 ft | 487 kts | 166° |
| 2026-02-20 08:31 | 38.50627 | 30.07787 | 37260 ft | 490 kts | 166° |
| 2026-02-20 08:31 | 38.44278 | 30.10779 | 37262 ft | 489 kts | 166° |
| 2026-02-20 08:32 | 38.37897 | 30.13781 | 37265 ft | 489 kts | 166° |
| 2026-02-20 08:33 | 38.28306 | 30.18254 | 37262 ft | 489 kts | 166° |
| 2026-02-20 08:33 | 38.21941 | 30.21167 | 37266 ft | 489 kts | 166° |
| 2026-02-20 08:34 | 38.15851 | 30.23952 | 37276 ft | 490 kts | 166° |
| 2026-02-20 08:34 | 38.09436 | 30.26888 | 37283 ft | 490 kts | 166° |
| 2026-02-20 08:35 | 37.99812 | 30.31292 | 37291 ft | 491 kts | 166° |
| 2026-02-20 08:35 | 37.93426 | 30.34196 | 37290 ft | 491 kts | 167° |
| 2026-02-20 08:36 | 37.86997 | 30.37098 | 37290 ft | 491 kts | 167° |
| 2026-02-20 08:36 | 37.80557 | 30.40002 | 37291 ft | 492 kts | 167° |
| 2026-02-20 08:37 | 37.74113 | 30.42907 | 37291 ft | 492 kts | 167° |
| 2026-02-20 08:37 | 37.67665 | 30.45810 | 37295 ft | 492 kts | 167° |
| 2026-02-20 08:38 | 37.61253 | 30.48691 | 37307 ft | 492 kts | 167° |
| 2026-02-20 08:38 | 37.54798 | 30.51586 | 37315 ft | 493 kts | 167° |
| 2026-02-20 08:39 | 37.48326 | 30.54482 | 37330 ft | 494 kts | 167° |
| 2026-02-20 08:39 | 37.41846 | 30.57378 | 37328 ft | 494 kts | 167° |
| 2026-02-20 08:40 | 37.35360 | 30.60271 | 37326 ft | 495 kts | 167° |
| 2026-02-20 08:40 | 37.28909 | 30.63143 | 37336 ft | 495 kts | 167° |
| 2026-02-20 08:41 | 37.22414 | 30.66030 | 37333 ft | 496 kts | 167° |
| 2026-02-20 08:41 | 37.15910 | 30.68915 | 37334 ft | 496 kts | 167° |
| 2026-02-20 08:42 | 37.09400 | 30.71798 | 37338 ft | 496 kts | 167° |
| 2026-02-20 08:42 | 37.02879 | 30.74679 | 37345 ft | 497 kts | 167° |
| 2026-02-20 08:43 | 36.96400 | 30.77538 | 37346 ft | 497 kts | 167° |
| 2026-02-20 08:43 | 36.89768 | 30.79434 | 37347 ft | 483 kts | 182° |
| 2026-02-20 08:44 | 36.83090 | 30.79883 | 37345 ft | 479 kts | 185° |
| 2026-02-20 08:44 | 36.76421 | 30.80064 | 37347 ft | 479 kts | 186° |
| 2026-02-20 08:45 | 36.69800 | 30.80235 | 37336 ft | 479 kts | 186° |
| 2026-02-20 08:45 | 36.63132 | 30.80445 | 37331 ft | 480 kts | 186° |
| 2026-02-20 08:46 | 36.56454 | 30.80674 | 37338 ft | 480 kts | 186° |
| 2026-02-20 08:46 | 36.49779 | 30.80907 | 37340 ft | 480 kts | 186° |
| 2026-02-20 08:47 | 36.43137 | 30.81138 | 37313 ft | 480 kts | 186° |
| 2026-02-20 08:47 | 36.36462 | 30.81373 | 37325 ft | 480 kts | 186° |
| 2026-02-20 08:48 | 36.29774 | 30.81593 | 37325 ft | 481 kts | 186° |
| 2026-02-20 08:48 | 36.23088 | 30.81811 | 37321 ft | 481 kts | 186° |
| 2026-02-20 08:49 | 36.16397 | 30.82033 | 37323 ft | 481 kts | 187° |
| 2026-02-20 08:49 | 36.09749 | 30.82254 | 37322 ft | 481 kts | 187° |
| 2026-02-20 08:50 | 36.03049 | 30.82479 | 37320 ft | 482 kts | 187° |
| 2026-02-20 08:50 | 35.96341 | 30.82837 | 37318 ft | 483 kts | 185° |
| 2026-02-20 08:51 | 35.89667 | 30.83281 | 37318 ft | 484 kts | 185° |
| 2026-02-20 08:51 | 35.82946 | 30.83713 | 37314 ft | 483 kts | 186° |
| 2026-02-20 08:52 | 35.76229 | 30.84124 | 37313 ft | 483 kts | 186° |
| 2026-02-20 08:52 | 35.69509 | 30.84528 | 37313 ft | 483 kts | 186° |
| 2026-02-20 08:53 | 35.62794 | 30.84930 | 37306 ft | 483 kts | 186° |
| 2026-02-20 08:53 | 35.56125 | 30.85262 | 37304 ft | 482 kts | 187° |
| 2026-02-20 08:54 | 35.49427 | 30.85455 | 37302 ft | 482 kts | 188° |
| 2026-02-20 08:54 | 35.42719 | 30.85645 | 37307 ft | 482 kts | 188° |
| 2026-02-20 08:55 | 35.36021 | 30.85857 | 37304 ft | 482 kts | 187° |
| 2026-02-20 08:55 | 35.29308 | 30.86081 | 37296 ft | 482 kts | 187° |
| 2026-02-20 08:56 | 35.22648 | 30.86306 | 37300 ft | 482 kts | 188° |
| 2026-02-20 08:56 | 35.15936 | 30.86533 | 37301 ft | 482 kts | 187° |
| 2026-02-20 08:57 | 35.09225 | 30.86760 | 37300 ft | 482 kts | 188° |
| 2026-02-20 08:57 | 35.02522 | 30.86980 | 37295 ft | 482 kts | 188° |
| 2026-02-20 08:58 | 34.95852 | 30.87200 | 37305 ft | 482 kts | 188° |
| 2026-02-20 08:58 | 34.89141 | 30.87422 | 37299 ft | 482 kts | 188° |
| 2026-02-20 08:59 | 34.82440 | 30.87644 | 37303 ft | 482 kts | 188° |
| 2026-02-20 08:59 | 34.75729 | 30.87866 | 37303 ft | 482 kts | 188° |
| 2026-02-20 09:00 | 34.69023 | 30.88088 | 37298 ft | 482 kts | 188° |
| 2026-02-20 09:00 | 34.62364 | 30.88308 | 37300 ft | 482 kts | 188° |
| 2026-02-20 09:01 | 34.55661 | 30.88581 | 37301 ft | 483 kts | 187° |
| 2026-02-20 09:01 | 34.48951 | 30.88931 | 37306 ft | 483 kts | 187° |
| 2026-02-20 09:02 | 34.42241 | 30.89280 | 37299 ft | 482 kts | 187° |
| 2026-02-20 09:02 | 34.35574 | 30.89614 | 37302 ft | 483 kts | 187° |
| 2026-02-20 09:03 | 34.28865 | 30.89942 | 37300 ft | 483 kts | 187° |
| 2026-02-20 09:03 | 34.22155 | 30.90274 | 37308 ft | 483 kts | 187° |
| 2026-02-20 09:04 | 34.15435 | 30.90645 | 37299 ft | 483 kts | 187° |
| 2026-02-20 09:04 | 34.08763 | 30.91023 | 37298 ft | 483 kts | 187° |
| 2026-02-20 09:05 | 34.02063 | 30.91399 | 37300 ft | 483 kts | 187° |
| 2026-02-20 09:05 | 33.95323 | 30.91773 | 37299 ft | 484 kts | 187° |
| 2026-02-20 09:06 | 33.88610 | 30.92084 | 37303 ft | 482 kts | 187° |
| 2026-02-20 09:06 | 33.81901 | 30.92313 | 37297 ft | 482 kts | 188° |
| 2026-02-20 09:07 | 33.78008 | 30.92445 | 37297 ft | 482 kts | 188° |
| 2026-02-20 09:07 | 33.71292 | 30.92687 | 37300 ft | 483 kts | 187° |
| 2026-02-20 09:08 | 33.64579 | 30.92940 | 37300 ft | 483 kts | 187° |
| 2026-02-20 09:08 | 33.57859 | 30.93196 | 37297 ft | 483 kts | 187° |
| 2026-02-20 09:09 | 33.51145 | 30.93450 | 37301 ft | 483 kts | 187° |
| 2026-02-20 09:09 | 33.44471 | 30.93701 | 37302 ft | 483 kts | 187° |
| 2026-02-20 09:10 | 33.37749 | 30.93956 | 37299 ft | 483 kts | 187° |
| 2026-02-20 09:10 | 33.31027 | 30.94210 | 37299 ft | 483 kts | 187° |
| 2026-02-20 09:11 | 33.24305 | 30.94463 | 37295 ft | 483 kts | 187° |
| 2026-02-20 09:11 | 33.17625 | 30.94714 | 37295 ft | 483 kts | 187° |
| 2026-02-20 09:12 | 33.10904 | 30.94966 | 37297 ft | 483 kts | 187° |
| 2026-02-20 09:12 | 33.04170 | 30.95426 | 37292 ft | 488 kts | 184° |
| 2026-02-20 09:13 | 32.97398 | 30.96261 | 37297 ft | 489 kts | 183° |
| 2026-02-20 09:13 | 32.90672 | 30.97123 | 37295 ft | 489 kts | 184° |
| 2026-02-20 09:14 | 32.83912 | 30.97922 | 37294 ft | 488 kts | 184° |
| 2026-02-20 09:14 | 32.77156 | 30.98679 | 37284 ft | 488 kts | 184° |
| 2026-02-20 09:15 | 32.70398 | 30.99427 | 37292 ft | 488 kts | 184° |
| 2026-02-20 09:15 | 32.63636 | 31.00177 | 37293 ft | 488 kts | 184° |
| 2026-02-20 09:16 | 32.56885 | 31.00926 | 37292 ft | 488 kts | 184° |
| 2026-02-20 09:16 | 32.50175 | 31.01670 | 37286 ft | 487 kts | 184° |
| 2026-02-20 09:17 | 32.43421 | 31.02418 | 37286 ft | 487 kts | 184° |
| 2026-02-20 09:17 | 32.36668 | 31.03165 | 37286 ft | 487 kts | 184° |
| 2026-02-20 09:18 | 32.29958 | 31.03905 | 37287 ft | 487 kts | 184° |
| 2026-02-20 09:18 | 32.23204 | 31.04649 | 37284 ft | 488 kts | 184° |
| 2026-02-20 09:19 | 32.16445 | 31.05393 | 37283 ft | 488 kts | 184° |
| 2026-02-20 09:19 | 32.09695 | 31.06135 | 37283 ft | 488 kts | 184° |
| 2026-02-20 09:20 | 32.02929 | 31.06878 | 37280 ft | 488 kts | 184° |
| 2026-02-20 09:20 | 31.96219 | 31.07606 | 37286 ft | 488 kts | 184° |
| 2026-02-20 09:21 | 31.89466 | 31.08330 | 37276 ft | 488 kts | 184° |
| 2026-02-20 09:21 | 31.83846 | 31.08932 | 37276 ft | 488 kts | 184° |
| 2026-02-20 09:22 | 31.75948 | 31.09780 | 37272 ft | 488 kts | 184° |
| 2026-02-20 09:22 | 31.69233 | 31.10499 | 37271 ft | 488 kts | 184° |
| 2026-02-20 09:23 | 31.62479 | 31.11222 | 37268 ft | 488 kts | 184° |
| 2026-02-20 09:23 | 31.56861 | 31.11823 | 37272 ft | 488 kts | 184° |
| 2026-02-20 09:24 | 31.50101 | 31.12590 | 37263 ft | 490 kts | 182° |
| 2026-02-20 09:24 | 31.43328 | 31.13825 | 37264 ft | 494 kts | 179° |
| 2026-02-20 09:25 | 31.36554 | 31.15229 | 37262 ft | 494 kts | 179° |
| 2026-02-20 09:25 | 31.29823 | 31.16567 | 37260 ft | 494 kts | 180° |
| 2026-02-20 09:26 | 31.23039 | 31.17852 | 37256 ft | 493 kts | 180° |
| 2026-02-20 09:26 | 31.16294 | 31.19109 | 37251 ft | 493 kts | 180° |
| 2026-02-20 09:27 | 31.09516 | 31.20364 | 37250 ft | 493 kts | 180° |
| 2026-02-20 09:27 | 31.02737 | 31.21621 | 37246 ft | 493 kts | 180° |
| 2026-02-20 09:28 | 30.95992 | 31.22873 | 37245 ft | 494 kts | 180° |
| 2026-02-20 09:28 | 30.89208 | 31.24130 | 37239 ft | 494 kts | 180° |
| 2026-02-20 09:29 | 30.82431 | 31.25385 | 37238 ft | 494 kts | 180° |
| 2026-02-20 09:29 | 30.75639 | 31.26641 | 37247 ft | 494 kts | 180° |
| 2026-02-20 09:30 | 30.68895 | 31.27887 | 37238 ft | 494 kts | 180° |
| 2026-02-20 09:30 | 30.62116 | 31.29136 | 37231 ft | 494 kts | 180° |
| 2026-02-20 09:31 | 30.55331 | 31.30385 | 37228 ft | 494 kts | 180° |
| 2026-02-20 09:31 | 30.48538 | 31.31634 | 37224 ft | 494 kts | 180° |
| 2026-02-20 09:32 | 30.41792 | 31.32875 | 37224 ft | 494 kts | 180° |
| 2026-02-20 09:32 | 30.35000 | 31.34122 | 37227 ft | 494 kts | 180° |
| 2026-02-20 09:33 | 30.28205 | 31.35368 | 37230 ft | 494 kts | 180° |
| 2026-02-20 09:33 | 30.21415 | 31.36611 | 37235 ft | 495 kts | 180° |
| 2026-02-20 09:34 | 30.14613 | 31.37856 | 37238 ft | 495 kts | 179° |
| 2026-02-20 09:34 | 30.07877 | 31.39339 | 37240 ft | 502 kts | 174° |
| 2026-02-20 09:35 | 30.01119 | 31.41477 | 37237 ft | 504 kts | 172° |
| 2026-02-20 09:35 | 29.94385 | 31.43734 | 37227 ft | 504 kts | 172° |
| 2026-02-20 09:36 | 29.87643 | 31.45997 | 37220 ft | 504 kts | 172° |
| 2026-02-20 09:36 | 29.80947 | 31.48223 | 37215 ft | 504 kts | 172° |
| 2026-02-20 09:37 | 29.74192 | 31.50457 | 37223 ft | 504 kts | 172° |
| 2026-02-20 09:37 | 29.67447 | 31.52685 | 37212 ft | 505 kts | 172° |
| 2026-02-20 09:38 | 29.60689 | 31.54900 | 37208 ft | 505 kts | 172° |
| 2026-02-20 09:38 | 29.53985 | 31.57087 | 37212 ft | 505 kts | 172° |
| 2026-02-20 09:39 | 29.47224 | 31.59292 | 37210 ft | 505 kts | 172° |
| 2026-02-20 09:39 | 29.40470 | 31.61495 | 37209 ft | 505 kts | 172° |
| 2026-02-20 09:40 | 29.33714 | 31.63696 | 37206 ft | 505 kts | 172° |
| 2026-02-20 09:40 | 29.26954 | 31.65895 | 37199 ft | 505 kts | 172° |
| 2026-02-20 09:41 | 29.20234 | 31.68079 | 37209 ft | 505 kts | 172° |
| 2026-02-20 09:41 | 29.13471 | 31.70272 | 37201 ft | 505 kts | 172° |
| 2026-02-20 09:42 | 29.06709 | 31.72463 | 37202 ft | 505 kts | 172° |
| 2026-02-20 09:43 | 28.96558 | 31.75748 | 37201 ft | 505 kts | 172° |
| 2026-02-20 09:43 | 28.89837 | 31.77897 | 37200 ft | 505 kts | 172° |
| 2026-02-20 09:44 | 28.83061 | 31.80040 | 37202 ft | 505 kts | 172° |
| 2026-02-20 09:44 | 28.76279 | 31.82186 | 37202 ft | 506 kts | 172° |
| 2026-02-20 09:45 | 28.69502 | 31.84333 | 37203 ft | 506 kts | 172° |
| 2026-02-20 09:45 | 28.62770 | 31.86465 | 37207 ft | 506 kts | 172° |
| 2026-02-20 09:46 | 28.55985 | 31.88611 | 37207 ft | 506 kts | 172° |
| 2026-02-20 09:46 | 28.49201 | 31.90754 | 37206 ft | 506 kts | 172° |
| 2026-02-20 09:47 | 28.42423 | 31.92892 | 37207 ft | 506 kts | 172° |
| 2026-02-20 09:47 | 28.35689 | 31.95013 | 37199 ft | 506 kts | 172° |
| 2026-02-20 09:48 | 28.28899 | 31.97149 | 37198 ft | 506 kts | 172° |
| 2026-02-20 09:48 | 28.22120 | 31.99278 | 37196 ft | 506 kts | 172° |
| 2026-02-20 09:49 | 28.15323 | 32.01410 | 37198 ft | 506 kts | 172° |
| 2026-02-20 09:49 | 28.08603 | 32.03913 | 37195 ft | 517 kts | 162° |
| 2026-02-20 09:50 | 28.02608 | 32.08530 | 37189 ft | 538 kts | 141° |
| 2026-02-20 09:50 | 28.00174 | 32.11788 | 37186 ft | 548 kts | 129° |
| 2026-02-20 09:50 | 27.98158 | 32.15472 | 37184 ft | 552 kts | 124° |
| 2026-02-20 09:51 | 27.94479 | 32.23110 | 37167 ft | 554 kts | 122° |
| 2026-02-20 09:51 | 27.90899 | 32.30819 | 37153 ft | 554 kts | 122° |
| 2026-02-20 09:52 | 27.87258 | 32.38497 | 37145 ft | 554 kts | 123° |
| 2026-02-20 09:52 | 27.83600 | 32.46073 | 37135 ft | 553 kts | 123° |
| 2026-02-20 09:53 | 27.79895 | 32.53692 | 37132 ft | 553 kts | 123° |
| 2026-02-20 09:53 | 27.76186 | 32.61310 | 37127 ft | 553 kts | 123° |
| 2026-02-20 09:54 | 27.72478 | 32.68918 | 37132 ft | 553 kts | 123° |
| 2026-02-20 09:54 | 27.68793 | 32.76467 | 37138 ft | 553 kts | 123° |
| 2026-02-20 09:55 | 27.65075 | 32.84071 | 37138 ft | 553 kts | 123° |
| 2026-02-20 09:55 | 27.61355 | 32.91666 | 37137 ft | 553 kts | 123° |
| 2026-02-20 09:56 | 27.57633 | 32.99251 | 37139 ft | 553 kts | 123° |
| 2026-02-20 09:56 | 27.53936 | 33.06775 | 37135 ft | 552 kts | 123° |
| 2026-02-20 09:57 | 27.50212 | 33.14336 | 37142 ft | 552 kts | 123° |
| 2026-02-20 09:57 | 27.46478 | 33.21903 | 37145 ft | 552 kts | 123° |
| 2026-02-20 09:58 | 27.42744 | 33.29457 | 37144 ft | 552 kts | 123° |
| 2026-02-20 09:58 | 27.39005 | 33.37011 | 37146 ft | 552 kts | 123° |
| 2026-02-20 09:59 | 27.35291 | 33.44501 | 37160 ft | 552 kts | 123° |
| 2026-02-20 09:59 | 27.31542 | 33.52043 | 37150 ft | 552 kts | 123° |
| 2026-02-20 10:00 | 27.27794 | 33.59572 | 37174 ft | 552 kts | 123° |
| 2026-02-20 10:00 | 27.24043 | 33.67093 | 37178 ft | 552 kts | 123° |
| 2026-02-20 10:01 | 27.20313 | 33.74560 | 37184 ft | 552 kts | 123° |
| 2026-02-20 10:01 | 27.16865 | 33.82279 | 37183 ft | 556 kts | 116° |
| 2026-02-20 10:02 | 27.14077 | 33.89884 | 37182 ft | 557 kts | 115° |
| 2026-02-20 10:02 | 27.11227 | 33.97966 | 37173 ft | 557 kts | 115° |
| 2026-02-20 10:03 | 27.08397 | 34.05987 | 37158 ft | 557 kts | 115° |
| 2026-02-20 10:03 | 27.05526 | 34.14050 | 37144 ft | 557 kts | 115° |
| 2026-02-20 10:04 | 27.02640 | 34.22113 | 37138 ft | 557 kts | 115° |
| 2026-02-20 10:04 | 26.99754 | 34.30170 | 37132 ft | 557 kts | 115° |
| 2026-02-20 10:05 | 26.96876 | 34.38168 | 37129 ft | 557 kts | 115° |
| 2026-02-20 10:05 | 26.93972 | 34.46222 | 37127 ft | 557 kts | 115° |
| 2026-02-20 10:06 | 26.91066 | 34.54271 | 37121 ft | 557 kts | 115° |
| 2026-02-20 10:06 | 26.88156 | 34.62317 | 37114 ft | 557 kts | 115° |
| 2026-02-20 10:07 | 26.85262 | 34.70301 | 37114 ft | 557 kts | 115° |
| 2026-02-20 10:07 | 26.82342 | 34.78341 | 37108 ft | 558 kts | 115° |
| 2026-02-20 10:08 | 26.79414 | 34.86388 | 37105 ft | 558 kts | 115° |
| 2026-02-20 10:08 | 26.76483 | 34.94424 | 37097 ft | 558 kts | 115° |
| 2026-02-20 10:09 | 26.73567 | 35.02401 | 37097 ft | 558 kts | 115° |
| 2026-02-20 10:09 | 26.70627 | 35.10431 | 37097 ft | 558 kts | 115° |
| 2026-02-20 10:10 | 26.67679 | 35.18464 | 37090 ft | 558 kts | 115° |
| 2026-02-20 10:10 | 26.64731 | 35.26480 | 37092 ft | 558 kts | 115° |
| 2026-02-20 10:11 | 26.61795 | 35.34449 | 37084 ft | 558 kts | 116° |
| 2026-02-20 10:11 | 26.58837 | 35.42462 | 37084 ft | 558 kts | 116° |
| 2026-02-20 10:12 | 26.55871 | 35.50476 | 37389 ft | 556 kts | 116° |
| 2026-02-20 10:12 | 26.54377 | 35.54440 | 37620 ft | 554 kts | 116° |
| 2026-02-20 10:12 | 26.52865 | 35.58395 | 37795 ft | 553 kts | 116° |
| 2026-02-20 10:12 | 26.51349 | 35.62338 | 37969 ft | 552 kts | 116° |
| 2026-02-20 10:13 | 26.49831 | 35.66280 | 38135 ft | 552 kts | 116° |
| 2026-02-20 10:13 | 26.48338 | 35.70163 | 38305 ft | 551 kts | 116° |
| 2026-02-20 10:13 | 26.46828 | 35.74093 | 38434 ft | 551 kts | 116° |
| 2026-02-20 10:13 | 26.45326 | 35.78005 | 38606 ft | 550 kts | 116° |
| 2026-02-20 10:14 | 26.43814 | 35.81944 | 38733 ft | 550 kts | 116° |
| 2026-02-20 10:14 | 26.42311 | 35.85857 | 38849 ft | 550 kts | 116° |
| 2026-02-20 10:14 | 26.40804 | 35.89779 | 38956 ft | 549 kts | 116° |
| 2026-02-20 10:15 | 26.37805 | 35.97567 | 39074 ft | 551 kts | 116° |
| 2026-02-20 10:15 | 26.34777 | 36.05417 | 39074 ft | 552 kts | 116° |
| 2026-02-20 10:16 | 26.31740 | 36.13275 | 39069 ft | 552 kts | 116° |
| 2026-02-20 10:16 | 26.28702 | 36.21119 | 39063 ft | 552 kts | 116° |
| 2026-02-20 10:17 | 26.25659 | 36.28963 | 39053 ft | 552 kts | 116° |
| 2026-02-20 10:17 | 26.22630 | 36.36755 | 39048 ft | 552 kts | 116° |
| 2026-02-20 10:18 | 26.19573 | 36.44603 | 39044 ft | 552 kts | 116° |
| 2026-02-20 10:18 | 26.16833 | 36.50984 | 39046 ft | 550 kts | 121° |
| 2026-02-20 10:19 | 26.12598 | 36.59735 | 39049 ft | 549 kts | 122° |
| 2026-02-20 10:19 | 26.08936 | 36.67123 | 39055 ft | 549 kts | 123° |
| 2026-02-20 10:20 | 26.05245 | 36.74563 | 39060 ft | 549 kts | 122° |
| 2026-02-20 10:20 | 26.01564 | 36.81996 | 39065 ft | 549 kts | 123° |
| 2026-02-20 10:21 | 25.97883 | 36.89428 | 39063 ft | 549 kts | 123° |
| 2026-02-20 10:21 | 25.94220 | 36.96812 | 39055 ft | 549 kts | 123° |
| 2026-02-20 10:22 | 25.90530 | 37.04235 | 39048 ft | 549 kts | 123° |
| 2026-02-20 10:22 | 25.86832 | 37.11664 | 39042 ft | 549 kts | 123° |
| 2026-02-20 10:23 | 25.83134 | 37.19079 | 39040 ft | 549 kts | 123° |
| 2026-02-20 10:23 | 25.79457 | 37.26445 | 39045 ft | 549 kts | 123° |
| 2026-02-20 10:24 | 25.75769 | 37.33854 | 39051 ft | 549 kts | 123° |
| 2026-02-20 10:24 | 25.72078 | 37.41271 | 39064 ft | 549 kts | 123° |
| 2026-02-20 10:25 | 25.68380 | 37.48684 | 39080 ft | 548 kts | 123° |
| 2026-02-20 10:25 | 25.64714 | 37.56020 | 39089 ft | 548 kts | 123° |
| 2026-02-20 10:26 | 25.61014 | 37.63410 | 39083 ft | 548 kts | 123° |
| 2026-02-20 10:26 | 25.57313 | 37.70791 | 39088 ft | 548 kts | 123° |
| 2026-02-20 10:27 | 25.53602 | 37.78178 | 39090 ft | 549 kts | 123° |
| 2026-02-20 10:27 | 25.49887 | 37.85563 | 39088 ft | 549 kts | 123° |
| 2026-02-20 10:28 | 25.46192 | 37.92897 | 39088 ft | 549 kts | 123° |
| 2026-02-20 10:28 | 25.42473 | 38.00266 | 39087 ft | 549 kts | 123° |
| 2026-02-20 10:29 | 25.38748 | 38.07636 | 39078 ft | 549 kts | 123° |
| 2026-02-20 10:29 | 25.35021 | 38.14994 | 39089 ft | 549 kts | 123° |
| 2026-02-20 10:30 | 25.31313 | 38.22311 | 39086 ft | 549 kts | 123° |
| 2026-02-20 10:30 | 25.27582 | 38.29657 | 39085 ft | 549 kts | 123° |
| 2026-02-20 10:31 | 25.23843 | 38.37005 | 39097 ft | 548 kts | 123° |
| 2026-02-20 10:31 | 25.20103 | 38.44345 | 39099 ft | 548 kts | 123° |
| 2026-02-20 10:32 | 25.16383 | 38.51632 | 39103 ft | 548 kts | 123° |
| 2026-02-20 10:32 | 25.12634 | 38.58961 | 39122 ft | 548 kts | 123° |
| 2026-02-20 10:33 | 25.08883 | 38.66271 | 39131 ft | 547 kts | 123° |
| 2026-02-20 10:33 | 25.05127 | 38.73577 | 39137 ft | 547 kts | 123° |
| 2026-02-20 10:34 | 25.01381 | 38.80861 | 39140 ft | 547 kts | 123° |
| 2026-02-20 10:34 | 24.99203 | 38.85090 | 39143 ft | 547 kts | 123° |
| 2026-02-20 10:35 | 24.95446 | 38.92379 | 39151 ft | 547 kts | 123° |
| 2026-02-20 10:35 | 24.91680 | 38.99665 | 39162 ft | 547 kts | 123° |
| 2026-02-20 10:36 | 24.87909 | 39.06944 | 39168 ft | 547 kts | 123° |
| 2026-02-20 10:36 | 24.84161 | 39.14168 | 39168 ft | 547 kts | 124° |
| 2026-02-20 10:37 | 24.80385 | 39.21441 | 39173 ft | 547 kts | 123° |
| 2026-02-20 10:37 | 24.76610 | 39.28707 | 39175 ft | 547 kts | 124° |
| 2026-02-20 10:38 | 24.72829 | 39.35960 | 39183 ft | 547 kts | 124° |
| 2026-02-20 10:38 | 24.69193 | 39.42930 | 39192 ft | 546 kts | 124° |
| 2026-02-20 10:39 | 24.65438 | 39.50121 | 39202 ft | 546 kts | 124° |
| 2026-02-20 10:39 | 24.61660 | 39.57341 | 39207 ft | 546 kts | 124° |
| 2026-02-20 10:40 | 24.57865 | 39.64581 | 39210 ft | 546 kts | 124° |
| 2026-02-20 10:40 | 24.54845 | 39.72265 | 39211 ft | 554 kts | 106° |
| 2026-02-20 10:41 | 24.53629 | 39.80633 | 39212 ft | 556 kts | 98° |
| 2026-02-20 10:41 | 24.52840 | 39.89040 | 39214 ft | 557 kts | 96° |
| 2026-02-20 10:42 | 24.52111 | 39.97508 | 39210 ft | 557 kts | 97° |
| 2026-02-20 10:42 | 24.51338 | 40.05945 | 39215 ft | 557 kts | 97° |
| 2026-02-20 10:43 | 24.50523 | 40.14363 | 39213 ft | 557 kts | 97° |
| 2026-02-20 10:43 | 24.49269 | 40.27035 | 39214 ft | 557 kts | 97° |
| 2026-02-20 10:44 | 24.48428 | 40.35498 | 39216 ft | 557 kts | 97° |
| 2026-02-20 10:44 | 24.47584 | 40.43958 | 39220 ft | 557 kts | 97° |
| 2026-02-20 10:45 | 24.46742 | 40.52350 | 39219 ft | 557 kts | 97° |
| 2026-02-20 10:45 | 24.45889 | 40.60799 | 39223 ft | 557 kts | 97° |
| 2026-02-20 10:46 | 24.45032 | 40.69246 | 39227 ft | 557 kts | 97° |
| 2026-02-20 10:46 | 24.44171 | 40.77689 | 39227 ft | 557 kts | 97° |
| 2026-02-20 10:47 | 24.43304 | 40.86131 | 39232 ft | 556 kts | 97° |
| 2026-02-20 10:47 | 24.42440 | 40.94504 | 39237 ft | 556 kts | 97° |
| 2026-02-20 10:48 | 24.41565 | 41.02944 | 39239 ft | 556 kts | 97° |
| 2026-02-20 10:48 | 24.40689 | 41.11380 | 39240 ft | 556 kts | 97° |
| 2026-02-20 10:49 | 24.39805 | 41.19809 | 39243 ft | 556 kts | 98° |
| 2026-02-20 10:49 | 24.38920 | 41.28178 | 39248 ft | 556 kts | 98° |
| 2026-02-20 10:50 | 24.38026 | 41.36608 | 39247 ft | 556 kts | 98° |
| 2026-02-20 10:50 | 24.37129 | 41.45027 | 39247 ft | 556 kts | 98° |
| 2026-02-20 10:51 | 24.36227 | 41.53448 | 39247 ft | 556 kts | 98° |
| 2026-02-20 10:51 | 24.35322 | 41.61854 | 39246 ft | 555 kts | 98° |
| 2026-02-20 10:52 | 24.34418 | 41.70209 | 39244 ft | 555 kts | 98° |
| 2026-02-20 10:52 | 24.33504 | 41.78612 | 39244 ft | 555 kts | 98° |
| 2026-02-20 10:53 | 24.31941 | 41.86851 | 39248 ft | 552 kts | 107° |
| 2026-02-20 10:53 | 24.29897 | 41.94904 | 39243 ft | 551 kts | 108° |
| 2026-02-20 10:54 | 24.27739 | 42.02967 | 39242 ft | 551 kts | 109° |
| 2026-02-20 10:54 | 24.25578 | 42.11016 | 39242 ft | 551 kts | 108° |
| 2026-02-20 10:55 | 24.23435 | 42.19072 | 39244 ft | 550 kts | 108° |
| 2026-02-20 10:55 | 24.21304 | 42.27115 | 39242 ft | 550 kts | 108° |
| 2026-02-20 10:56 | 24.19185 | 42.35100 | 39244 ft | 549 kts | 108° |
| 2026-02-20 10:56 | 24.17051 | 42.43117 | 39243 ft | 549 kts | 108° |
| 2026-02-20 10:57 | 24.14912 | 42.51135 | 39245 ft | 548 kts | 108° |
| 2026-02-20 10:57 | 24.12770 | 42.59143 | 39247 ft | 548 kts | 108° |
| 2026-02-20 10:58 | 24.10639 | 42.67091 | 39242 ft | 548 kts | 108° |
| 2026-02-20 10:58 | 24.08492 | 42.75083 | 39241 ft | 547 kts | 108° |
| 2026-02-20 10:59 | 24.06340 | 42.83076 | 39244 ft | 547 kts | 108° |
| 2026-02-20 10:59 | 24.04189 | 42.91052 | 39246 ft | 547 kts | 108° |
| 2026-02-20 11:00 | 24.02045 | 42.98984 | 39248 ft | 547 kts | 109° |
| 2026-02-20 11:00 | 23.99882 | 43.06950 | 39246 ft | 547 kts | 109° |
| 2026-02-20 11:01 | 23.97714 | 43.14923 | 39250 ft | 546 kts | 109° |
| 2026-02-20 11:01 | 23.95547 | 43.22882 | 39247 ft | 546 kts | 109° |
| 2026-02-20 11:02 | 23.93650 | 43.29830 | 39246 ft | 546 kts | 109° |
| 2026-02-20 11:02 | 23.91474 | 43.37782 | 39243 ft | 546 kts | 109° |
| 2026-02-20 11:03 | 23.89298 | 43.45720 | 39241 ft | 546 kts | 109° |
| 2026-02-20 11:03 | 23.87104 | 43.53703 | 39236 ft | 551 kts | 109° |
| 2026-02-20 11:04 | 23.84890 | 43.61741 | 39231 ft | 554 kts | 109° |
| 2026-02-20 11:04 | 23.82679 | 43.69752 | 39222 ft | 556 kts | 109° |
| 2026-02-20 11:05 | 23.80443 | 43.77840 | 39218 ft | 557 kts | 109° |
| 2026-02-20 11:05 | 23.78208 | 43.85938 | 39204 ft | 557 kts | 107° |
| 2026-02-20 11:06 | 23.76974 | 43.94163 | 39203 ft | 559 kts | 97° |
| 2026-02-20 11:06 | 23.76275 | 44.02631 | 39200 ft | 560 kts | 95° |
| 2026-02-20 11:07 | 23.75695 | 44.11040 | 39198 ft | 560 kts | 95° |
| 2026-02-20 11:07 | 23.75101 | 44.19518 | 39194 ft | 560 kts | 95° |
| 2026-02-20 11:08 | 23.74474 | 44.27988 | 39191 ft | 560 kts | 95° |
| 2026-02-20 11:08 | 23.73829 | 44.36449 | 39193 ft | 560 kts | 96° |
| 2026-02-20 11:09 | 23.73180 | 44.44863 | 39198 ft | 560 kts | 96° |
| 2026-02-20 11:09 | 23.72525 | 44.53322 | 39198 ft | 559 kts | 96° |
| 2026-02-20 11:10 | 23.71867 | 44.61775 | 39197 ft | 559 kts | 96° |
| 2026-02-20 11:10 | 23.71205 | 44.70225 | 39199 ft | 559 kts | 96° |
| 2026-02-20 11:11 | 23.70543 | 44.78616 | 39189 ft | 559 kts | 96° |
| 2026-02-20 11:11 | 23.69872 | 44.87060 | 39194 ft | 558 kts | 96° |
| 2026-02-20 11:12 | 23.69199 | 44.95500 | 39196 ft | 558 kts | 96° |
| 2026-02-20 11:12 | 23.68517 | 45.03935 | 39193 ft | 558 kts | 96° |
| 2026-02-20 11:13 | 23.67836 | 45.12305 | 39187 ft | 558 kts | 96° |
| 2026-02-20 11:13 | 23.67147 | 45.20725 | 39188 ft | 558 kts | 96° |
| 2026-02-20 11:14 | 23.66458 | 45.29147 | 39188 ft | 557 kts | 96° |
| 2026-02-20 11:14 | 23.65759 | 45.37570 | 39192 ft | 557 kts | 96° |
| 2026-02-20 11:15 | 23.65056 | 45.45979 | 39185 ft | 557 kts | 96° |
| 2026-02-20 11:15 | 23.64355 | 45.54323 | 39184 ft | 556 kts | 96° |
| 2026-02-20 11:16 | 23.63645 | 45.62723 | 39188 ft | 556 kts | 96° |
| 2026-02-20 11:16 | 23.62937 | 45.71111 | 39186 ft | 555 kts | 96° |
| 2026-02-20 11:17 | 23.62216 | 45.79495 | 39180 ft | 555 kts | 96° |
| 2026-02-20 11:17 | 23.61498 | 45.87807 | 39180 ft | 554 kts | 96° |
| 2026-02-20 11:18 | 23.60772 | 45.96165 | 39181 ft | 554 kts | 96° |
| 2026-02-20 11:18 | 23.60042 | 46.04526 | 39181 ft | 554 kts | 96° |
| 2026-02-20 11:19 | 23.59308 | 46.12885 | 39180 ft | 553 kts | 96° |
| 2026-02-20 11:19 | 23.58576 | 46.21174 | 39178 ft | 553 kts | 96° |
| 2026-02-20 11:20 | 23.57833 | 46.29512 | 39181 ft | 553 kts | 96° |
| 2026-02-20 11:20 | 23.57087 | 46.37854 | 39186 ft | 552 kts | 96° |
| 2026-02-20 11:21 | 23.56337 | 46.46176 | 39182 ft | 552 kts | 96° |
| 2026-02-20 11:21 | 23.55584 | 46.54494 | 39185 ft | 551 kts | 96° |
| 2026-02-20 11:22 | 23.54835 | 46.62750 | 39160 ft | 549 kts | 97° |
| 2026-02-20 11:22 | 23.54087 | 46.70984 | 39177 ft | 546 kts | 97° |
| 2026-02-20 11:23 | 23.53323 | 46.79234 | 39180 ft | 546 kts | 97° |
| 2026-02-20 11:23 | 23.52557 | 46.87458 | 39173 ft | 546 kts | 97° |
| 2026-02-20 11:24 | 23.51795 | 46.95621 | 39177 ft | 545 kts | 97° |
| 2026-02-20 11:24 | 23.51024 | 47.03841 | 39170 ft | 545 kts | 97° |
| 2026-02-20 11:25 | 23.50248 | 47.12063 | 39172 ft | 545 kts | 98° |
| 2026-02-20 11:25 | 23.49469 | 47.20277 | 39159 ft | 545 kts | 98° |
| 2026-02-20 11:26 | 23.48691 | 47.28438 | 39165 ft | 545 kts | 98° |
| 2026-02-20 11:26 | 23.47903 | 47.36652 | 39155 ft | 545 kts | 98° |
| 2026-02-20 11:27 | 23.47111 | 47.44868 | 39162 ft | 545 kts | 98° |
| 2026-02-20 11:27 | 23.46313 | 47.53084 | 39158 ft | 545 kts | 98° |
| 2026-02-20 11:28 | 23.45516 | 47.61246 | 39148 ft | 546 kts | 98° |
| 2026-02-20 11:28 | 23.44711 | 47.69464 | 39146 ft | 546 kts | 98° |
| 2026-02-20 11:29 | 23.43903 | 47.77677 | 39145 ft | 546 kts | 98° |
| 2026-02-20 11:29 | 23.43090 | 47.85889 | 39143 ft | 546 kts | 98° |
| 2026-02-20 11:30 | 23.42271 | 47.94109 | 39135 ft | 546 kts | 98° |
| 2026-02-20 11:30 | 23.41454 | 48.02269 | 39130 ft | 546 kts | 98° |
| 2026-02-20 11:31 | 23.40628 | 48.10477 | 39128 ft | 546 kts | 98° |
| 2026-02-20 11:31 | 23.39795 | 48.18697 | 39128 ft | 547 kts | 98° |
| 2026-02-20 11:32 | 23.38957 | 48.26937 | 39127 ft | 547 kts | 98° |
| 2026-02-20 11:32 | 23.37270 | 48.34869 | 39118 ft | 540 kts | 115° |
| 2026-02-20 11:33 | 23.35624 | 48.38532 | 39126 ft | 536 kts | 123° |
| 2026-02-20 11:33 | 23.31769 | 48.45452 | 39119 ft | 535 kts | 126° |
| 2026-02-20 11:34 | 23.27721 | 48.52245 | 39122 ft | 534 kts | 127° |
| 2026-02-20 11:34 | 23.23663 | 48.59016 | 39120 ft | 535 kts | 126° |
| 2026-02-20 11:35 | 23.19662 | 48.65771 | 39118 ft | 535 kts | 126° |
| 2026-02-20 11:35 | 23.15655 | 48.72580 | 39119 ft | 535 kts | 126° |
| 2026-02-20 11:36 | 23.11650 | 48.79387 | 39113 ft | 534 kts | 126° |
| 2026-02-20 11:36 | 23.07648 | 48.86178 | 39109 ft | 534 kts | 126° |
| 2026-02-20 11:37 | 23.03635 | 48.92974 | 39106 ft | 534 kts | 126° |
| 2026-02-20 11:37 | 23.00041 | 48.99983 | 39108 ft | 539 kts | 114° |
| 2026-02-20 11:38 | 22.98078 | 49.07857 | 39104 ft | 543 kts | 104° |
| 2026-02-20 11:38 | 22.96660 | 49.15905 | 39120 ft | 543 kts | 102° |
| 2026-02-20 11:39 | 22.95338 | 49.23978 | 39114 ft | 543 kts | 102° |
| 2026-02-20 11:39 | 22.93994 | 49.31987 | 39114 ft | 543 kts | 102° |
| 2026-02-20 11:40 | 22.92598 | 49.40039 | 39114 ft | 543 kts | 103° |
| 2026-02-20 11:40 | 22.91185 | 49.48079 | 39103 ft | 543 kts | 103° |
| 2026-02-20 11:41 | 22.89766 | 49.56122 | 39113 ft | 543 kts | 103° |
| 2026-02-20 11:41 | 22.88346 | 49.64155 | 39099 ft | 542 kts | 103° |
| 2026-02-20 11:42 | 22.86932 | 49.72133 | 39107 ft | 542 kts | 103° |
| 2026-02-20 11:42 | 22.85508 | 49.80150 | 39091 ft | 542 kts | 103° |
| 2026-02-20 11:43 | 22.84079 | 49.88170 | 39104 ft | 541 kts | 103° |
| 2026-02-20 11:43 | 22.82647 | 49.96179 | 39099 ft | 541 kts | 103° |
| 2026-02-20 11:44 | 22.81222 | 50.04128 | 39102 ft | 541 kts | 103° |
| 2026-02-20 11:44 | 22.79784 | 50.12124 | 39101 ft | 540 kts | 103° |
| 2026-02-20 11:45 | 22.78343 | 50.20115 | 39102 ft | 540 kts | 103° |
| 2026-02-20 11:45 | 22.76900 | 50.28090 | 39101 ft | 540 kts | 103° |
| 2026-02-20 11:46 | 22.75454 | 50.36063 | 39096 ft | 539 kts | 103° |
| 2026-02-20 11:46 | 22.74013 | 50.43983 | 39094 ft | 539 kts | 103° |
| 2026-02-20 11:47 | 22.72561 | 50.51936 | 39094 ft | 538 kts | 103° |
| 2026-02-20 11:47 | 22.71106 | 50.59886 | 39093 ft | 538 kts | 103° |
| 2026-02-20 11:48 | 22.69649 | 50.67823 | 39093 ft | 537 kts | 103° |
| 2026-02-20 11:48 | 22.68199 | 50.75698 | 39091 ft | 537 kts | 103° |
| 2026-02-20 11:49 | 22.66736 | 50.83623 | 39090 ft | 537 kts | 103° |
| 2026-02-20 11:49 | 22.65269 | 50.91549 | 39087 ft | 536 kts | 103° |
| 2026-02-20 11:50 | 22.63801 | 50.99455 | 39088 ft | 536 kts | 103° |
| 2026-02-20 11:50 | 22.62337 | 51.07316 | 39087 ft | 536 kts | 103° |
| 2026-02-20 11:51 | 22.60861 | 51.15221 | 39086 ft | 536 kts | 103° |
| 2026-02-20 11:51 | 22.59382 | 51.23118 | 39086 ft | 535 kts | 103° |
| 2026-02-20 11:52 | 22.57900 | 51.31008 | 39081 ft | 535 kts | 103° |
| 2026-02-20 11:52 | 22.56416 | 51.38890 | 39079 ft | 535 kts | 103° |
| 2026-02-20 11:53 | 22.54937 | 51.46720 | 39078 ft | 535 kts | 103° |
| 2026-02-20 11:53 | 22.53444 | 51.54602 | 39077 ft | 535 kts | 103° |
| 2026-02-20 11:54 | 22.51949 | 51.62477 | 39072 ft | 534 kts | 103° |
| 2026-02-20 11:54 | 22.50449 | 51.70354 | 39077 ft | 534 kts | 103° |
| 2026-02-20 11:55 | 22.48957 | 51.78166 | 39076 ft | 534 kts | 103° |
| 2026-02-20 11:55 | 22.47450 | 51.86034 | 39067 ft | 534 kts | 103° |
| 2026-02-20 11:56 | 22.45940 | 51.93900 | 39071 ft | 534 kts | 103° |
| 2026-02-20 11:56 | 22.44427 | 52.01756 | 39068 ft | 534 kts | 103° |
| 2026-02-20 11:57 | 22.42911 | 52.09608 | 39064 ft | 534 kts | 103° |
| 2026-02-20 11:57 | 22.41401 | 52.17413 | 39061 ft | 533 kts | 103° |
| 2026-02-20 11:58 | 22.39879 | 52.25250 | 39063 ft | 533 kts | 103° |
| 2026-02-20 11:58 | 22.38354 | 52.33084 | 39066 ft | 533 kts | 103° |
| 2026-02-20 11:59 | 22.36827 | 52.40909 | 39063 ft | 533 kts | 103° |
| 2026-02-20 11:59 | 22.35294 | 52.48743 | 39058 ft | 532 kts | 103° |
| 2026-02-20 12:00 | 22.33771 | 52.56505 | 39059 ft | 532 kts | 103° |
| 2026-02-20 12:00 | 22.32232 | 52.64328 | 39057 ft | 532 kts | 103° |
| 2026-02-20 12:01 | 22.30692 | 52.72136 | 39061 ft | 532 kts | 104° |
| 2026-02-20 12:01 | 22.29148 | 52.79942 | 39059 ft | 531 kts | 104° |
| 2026-02-20 12:02 | 22.27613 | 52.87685 | 39059 ft | 531 kts | 104° |
| 2026-02-20 12:02 | 22.26062 | 52.95484 | 39057 ft | 531 kts | 104° |
| 2026-02-20 12:03 | 22.24511 | 53.03267 | 39058 ft | 530 kts | 104° |
| 2026-02-20 12:03 | 22.22956 | 53.11044 | 39053 ft | 530 kts | 104° |
| 2026-02-20 12:04 | 22.21408 | 53.18775 | 39053 ft | 530 kts | 104° |
| 2026-02-20 12:04 | 22.19847 | 53.26542 | 39053 ft | 530 kts | 104° |
| 2026-02-20 12:05 | 22.18282 | 53.34313 | 39055 ft | 530 kts | 104° |
| 2026-02-20 12:05 | 22.16980 | 53.40760 | 39052 ft | 530 kts | 104° |
| 2026-02-20 12:06 | 22.15409 | 53.48523 | 39050 ft | 530 kts | 104° |
| 2026-02-20 12:06 | 22.13580 | 53.57541 | 39047 ft | 530 kts | 104° |
| 2026-02-20 12:07 | 22.12000 | 53.65304 | 39047 ft | 529 kts | 104° |
| 2026-02-20 12:07 | 22.10686 | 53.71748 | 39046 ft | 529 kts | 104° |
| 2026-02-20 12:08 | 22.09102 | 53.79493 | 39045 ft | 529 kts | 104° |
| 2026-02-20 12:08 | 22.07257 | 53.88495 | 39043 ft | 529 kts | 104° |
| 2026-02-20 12:09 | 22.05924 | 53.94983 | 39046 ft | 529 kts | 104° |
| 2026-02-20 12:09 | 22.04345 | 54.02651 | 39048 ft | 529 kts | 104° |
| 2026-02-20 12:10 | 22.02741 | 54.10419 | 39050 ft | 529 kts | 104° |
| 2026-02-20 12:10 | 22.01140 | 54.18153 | 39048 ft | 529 kts | 104° |
| 2026-02-20 12:11 | 21.99534 | 54.25890 | 39047 ft | 529 kts | 104° |
| 2026-02-20 12:11 | 21.97937 | 54.33568 | 39045 ft | 529 kts | 104° |
| 2026-02-20 12:12 | 21.96324 | 54.41299 | 39047 ft | 529 kts | 104° |
| 2026-02-20 12:12 | 21.94709 | 54.49024 | 39045 ft | 529 kts | 104° |
| 2026-02-20 12:13 | 21.93091 | 54.56745 | 39046 ft | 529 kts | 104° |
| 2026-02-20 12:13 | 21.91469 | 54.64465 | 39045 ft | 529 kts | 104° |
| 2026-02-20 12:14 | 21.89841 | 54.72190 | 39049 ft | 528 kts | 104° |
| 2026-02-20 12:14 | 21.88225 | 54.79846 | 39045 ft | 528 kts | 104° |
| 2026-02-20 12:15 | 21.86594 | 54.87556 | 39043 ft | 528 kts | 104° |
| 2026-02-20 12:15 | 21.84960 | 54.95256 | 39052 ft | 528 kts | 104° |
| 2026-02-20 12:16 | 21.83323 | 55.02958 | 39048 ft | 528 kts | 104° |
| 2026-02-20 12:16 | 21.81692 | 55.10607 | 39050 ft | 527 kts | 104° |
| 2026-02-20 12:17 | 21.80048 | 55.18302 | 39046 ft | 527 kts | 104° |
| 2026-02-20 12:17 | 21.78404 | 55.25974 | 39046 ft | 527 kts | 104° |
| 2026-02-20 12:18 | 21.76753 | 55.33667 | 39051 ft | 527 kts | 104° |
| 2026-02-20 12:18 | 21.75110 | 55.41299 | 39055 ft | 527 kts | 104° |
| 2026-02-20 12:19 | 21.73454 | 55.48976 | 39057 ft | 527 kts | 104° |
| 2026-02-20 12:19 | 21.71893 | 55.56672 | 39054 ft | 528 kts | 99° |
| 2026-02-20 12:20 | 21.71216 | 55.64541 | 39059 ft | 528 kts | 95° |
| 2026-02-20 12:20 | 21.70767 | 55.72366 | 39060 ft | 528 kts | 94° |
| 2026-02-20 12:21 | 21.70347 | 55.80252 | 39060 ft | 528 kts | 94° |
| 2026-02-20 12:21 | 21.69910 | 55.88132 | 39065 ft | 528 kts | 94° |
| 2026-02-20 12:22 | 21.69447 | 55.96004 | 39061 ft | 528 kts | 94° |
| 2026-02-20 12:22 | 21.68975 | 56.03876 | 39066 ft | 528 kts | 94° |
| 2026-02-20 12:23 | 21.68503 | 56.11699 | 39062 ft | 528 kts | 94° |
| 2026-02-20 12:23 | 21.68029 | 56.19549 | 39062 ft | 528 kts | 94° |
| 2026-02-20 12:24 | 21.67549 | 56.27437 | 39060 ft | 527 kts | 94° |
| 2026-02-20 12:24 | 21.67066 | 56.35308 | 39058 ft | 527 kts | 94° |
| 2026-02-20 12:25 | 21.66584 | 56.43103 | 39057 ft | 527 kts | 94° |
| 2026-02-20 12:25 | 21.66093 | 56.50982 | 39058 ft | 527 kts | 94° |
| 2026-02-20 12:26 | 21.65600 | 56.58836 | 39065 ft | 527 kts | 94° |
| 2026-02-20 12:26 | 21.65103 | 56.66700 | 39066 ft | 527 kts | 94° |
| 2026-02-20 12:27 | 21.64602 | 56.74557 | 39063 ft | 527 kts | 94° |
| 2026-02-20 12:27 | 21.64103 | 56.82339 | 39064 ft | 527 kts | 94° |
| 2026-02-20 12:28 | 21.63594 | 56.90201 | 39068 ft | 527 kts | 94° |
| 2026-02-20 12:28 | 21.63083 | 56.98056 | 39065 ft | 527 kts | 94° |
| 2026-02-20 12:29 | 21.62567 | 57.05912 | 39067 ft | 527 kts | 94° |
| 2026-02-20 12:29 | 21.62055 | 57.13692 | 39070 ft | 527 kts | 94° |
| 2026-02-20 12:30 | 21.61532 | 57.21556 | 39071 ft | 527 kts | 95° |
| 2026-02-20 12:30 | 21.61002 | 57.29409 | 39068 ft | 527 kts | 94° |
| 2026-02-20 12:31 | 21.60202 | 57.41180 | 39071 ft | 527 kts | 95° |
| 2026-02-20 12:31 | 21.59665 | 57.49033 | 39069 ft | 527 kts | 95° |
| 2026-02-20 12:32 | 21.59128 | 57.56828 | 39070 ft | 527 kts | 95° |
| 2026-02-20 12:33 | 21.57897 | 57.68541 | 39074 ft | 526 kts | 104° |
| 2026-02-20 12:33 | 21.55969 | 57.76108 | 39066 ft | 525 kts | 107° |
| 2026-02-20 12:34 | 21.53861 | 57.83618 | 39067 ft | 525 kts | 108° |
| 2026-02-20 12:34 | 21.51714 | 57.91068 | 39064 ft | 525 kts | 108° |
| 2026-02-20 12:35 | 21.49568 | 57.98556 | 39061 ft | 525 kts | 108° |
| 2026-02-20 12:35 | 21.47437 | 58.06070 | 39061 ft | 526 kts | 108° |
| 2026-02-20 12:36 | 21.45312 | 58.13583 | 39060 ft | 526 kts | 108° |
| 2026-02-20 12:36 | 21.43189 | 58.21080 | 39056 ft | 526 kts | 108° |
| 2026-02-20 12:37 | 21.41067 | 58.28555 | 39055 ft | 526 kts | 108° |
| 2026-02-20 12:37 | 21.38934 | 58.36053 | 39051 ft | 526 kts | 108° |
| 2026-02-20 12:38 | 21.36791 | 58.43569 | 39052 ft | 526 kts | 108° |
| 2026-02-20 12:38 | 21.34646 | 58.51079 | 39052 ft | 527 kts | 108° |
| 2026-02-20 12:39 | 21.32510 | 58.58546 | 39053 ft | 527 kts | 108° |
| 2026-02-20 12:39 | 21.30360 | 58.66048 | 39053 ft | 527 kts | 108° |
| 2026-02-20 12:40 | 21.28200 | 58.73569 | 39054 ft | 528 kts | 108° |
| 2026-02-20 12:40 | 21.26039 | 58.81087 | 39048 ft | 528 kts | 108° |
| 2026-02-20 12:41 | 21.23870 | 58.88614 | 39049 ft | 528 kts | 108° |
| 2026-02-20 12:41 | 21.21711 | 58.96078 | 39048 ft | 529 kts | 108° |
| 2026-02-20 12:42 | 21.19531 | 59.03608 | 39048 ft | 529 kts | 108° |
| 2026-02-20 12:42 | 21.17348 | 59.11132 | 39051 ft | 529 kts | 108° |
| 2026-02-20 12:43 | 21.15159 | 59.18667 | 39053 ft | 529 kts | 108° |
| 2026-02-20 12:43 | 21.12984 | 59.26144 | 39050 ft | 530 kts | 108° |
| 2026-02-20 12:44 | 21.10787 | 59.33681 | 39048 ft | 530 kts | 108° |
| 2026-02-20 12:44 | 21.08585 | 59.41219 | 39048 ft | 530 kts | 108° |
| 2026-02-20 12:45 | 21.06379 | 59.48757 | 39049 ft | 531 kts | 108° |
| 2026-02-20 12:45 | 21.04183 | 59.56251 | 39048 ft | 531 kts | 108° |
| 2026-02-20 12:46 | 21.01752 | 59.63705 | 39046 ft | 530 kts | 116° |
| 2026-02-20 12:46 | 20.97640 | 59.70158 | 39045 ft | 524 kts | 137° |
| 2026-02-20 12:47 | 20.91879 | 59.74820 | 39046 ft | 519 kts | 150° |
| 2026-02-20 12:47 | 20.85691 | 59.78803 | 39042 ft | 519 kts | 152° |
| 2026-02-20 12:48 | 20.79489 | 59.82656 | 39045 ft | 519 kts | 152° |
| 2026-02-20 12:48 | 20.73272 | 59.86558 | 39042 ft | 519 kts | 152° |
| 2026-02-20 12:49 | 20.67073 | 59.90502 | 39043 ft | 518 kts | 152° |
| 2026-02-20 12:49 | 20.60879 | 59.94461 | 39038 ft | 519 kts | 152° |
| 2026-02-20 12:50 | 20.54695 | 59.98412 | 39040 ft | 518 kts | 152° |
| 2026-02-20 12:50 | 20.48546 | 60.02334 | 39037 ft | 518 kts | 152° |
| 2026-02-20 12:51 | 20.42354 | 60.06279 | 39036 ft | 518 kts | 152° |
| 2026-02-20 12:51 | 20.36167 | 60.10216 | 39037 ft | 518 kts | 152° |
| 2026-02-20 12:52 | 20.29969 | 60.14157 | 39037 ft | 518 kts | 152° |
| 2026-02-20 12:52 | 20.23814 | 60.18066 | 39033 ft | 519 kts | 152° |
| 2026-02-20 12:53 | 20.17617 | 60.21999 | 39034 ft | 519 kts | 152° |
| 2026-02-20 12:53 | 20.11416 | 60.25931 | 39033 ft | 518 kts | 152° |
| 2026-02-20 12:54 | 20.05298 | 60.29989 | 39031 ft | 521 kts | 146° |
| 2026-02-20 12:54 | 19.99760 | 60.34898 | 39033 ft | 522 kts | 141° |
| 2026-02-20 12:55 | 19.94344 | 60.40049 | 39032 ft | 523 kts | 140° |
| 2026-02-20 12:55 | 19.88953 | 60.45230 | 39028 ft | 523 kts | 140° |
| 2026-02-20 12:56 | 19.83542 | 60.50397 | 39030 ft | 522 kts | 140° |
| 2026-02-20 12:56 | 19.78161 | 60.55506 | 39027 ft | 522 kts | 140° |
| 2026-02-20 12:57 | 19.72747 | 60.60636 | 39027 ft | 522 kts | 140° |
| 2026-02-20 12:57 | 19.67324 | 60.65769 | 39025 ft | 522 kts | 140° |
| 2026-02-20 12:58 | 19.61904 | 60.70896 | 39023 ft | 522 kts | 140° |
| 2026-02-20 12:58 | 19.56524 | 60.75980 | 39023 ft | 522 kts | 140° |
| 2026-02-20 12:59 | 19.51105 | 60.81097 | 39020 ft | 521 kts | 140° |
| 2026-02-20 12:59 | 19.45687 | 60.86208 | 39022 ft | 521 kts | 140° |
| 2026-02-20 13:00 | 19.40273 | 60.91311 | 39020 ft | 521 kts | 140° |
| 2026-02-20 13:00 | 19.34890 | 60.96379 | 39021 ft | 521 kts | 140° |
| 2026-02-20 13:01 | 19.29475 | 61.01473 | 39020 ft | 521 kts | 140° |
| 2026-02-20 13:01 | 19.24054 | 61.06568 | 39019 ft | 521 kts | 140° |
| 2026-02-20 13:02 | 19.18642 | 61.11650 | 39022 ft | 520 kts | 140° |
| 2026-02-20 13:02 | 19.13261 | 61.16697 | 39023 ft | 520 kts | 140° |
| 2026-02-20 13:03 | 19.07847 | 61.21772 | 39015 ft | 520 kts | 140° |
| 2026-02-20 13:03 | 18.84772 | 61.43325 | 39139 ft | 517 kts | 138° |
| 2026-02-20 13:03 | 18.80312 | 61.46516 | 37877 ft | 520 kts | 156° |
| 2026-02-20 13:04 | 18.77239 | 61.48544 | 37143 ft | 523 kts | 142° |
| 2026-02-20 13:04 | 18.74589 | 61.51169 | 36849 ft | 525 kts | 136° |
| 2026-02-20 13:04 | 18.72097 | 61.54000 | 36953 ft | 524 kts | 134° |
| 2026-02-20 13:04 | 18.69662 | 61.56772 | 37189 ft | 521 kts | 135° |
| 2026-02-20 13:05 | 18.64252 | 61.62477 | 37740 ft | 515 kts | 138° |
| 2026-02-20 13:05 | 18.49735 | 61.76110 | 39070 ft | 503 kts | 140° |
| 2026-02-20 13:05 | 18.37585 | 61.87222 | 39075 ft | 512 kts | 140° |
| 2026-02-20 13:05 | 18.28026 | 61.96032 | 38944 ft | 515 kts | 140° |
| 2026-02-20 13:06 | 18.25342 | 61.98527 | 39007 ft | 515 kts | 140° |
| 2026-02-20 13:06 | 18.09511 | 62.13313 | 38980 ft | 517 kts | 139° |
| 2026-02-20 13:07 | 17.80058 | 62.40502 | 38817 ft | 516 kts | 127° |
| 2026-02-20 13:07 | 17.77941 | 62.43535 | 38666 ft | 515 kts | 131° |
| 2026-02-20 13:07 | 17.75368 | 62.46118 | 38823 ft | 510 kts | 141° |
| 2026-02-20 13:07 | 17.68271 | 62.51696 | 39074 ft | 509 kts | 144° |
| 2026-02-20 13:08 | 17.45902 | 62.69964 | 39063 ft | 500 kts | 164° |
| 2026-02-20 13:08 | 17.42452 | 62.70485 | 37637 ft | 507 kts | 176° |
| 2026-02-20 13:08 | 17.38990 | 62.71264 | 36853 ft | 512 kts | 161° |
| 2026-02-20 13:08 | 17.35822 | 62.72974 | 36500 ft | 516 kts | 146° |
| 2026-02-20 13:09 | 17.33214 | 62.75445 | 36531 ft | 518 kts | 130° |
| 2026-02-20 13:09 | 17.30169 | 62.80971 | 36950 ft | 514 kts | 114° |
| 2026-02-20 13:09 | 17.13434 | 63.02131 | 38912 ft | 486 kts | 144° |
| 2026-02-20 13:09 | 16.92014 | 63.20174 | 39350 ft | 496 kts | 140° |
| 2026-02-20 13:10 | 16.70420 | 63.39007 | 39504 ft | 494 kts | 141° |
| 2026-02-20 13:10 | 16.55786 | 63.51605 | 39553 ft | 493 kts | 141° |
| 2026-02-20 13:11 | 16.12093 | 63.89216 | 39487 ft | 493 kts | 141° |
| 2026-02-20 13:11 | 15.68589 | 64.26423 | 39483 ft | 492 kts | 141° |
| 2026-02-20 13:11 | 15.46619 | 64.45045 | 39292 ft | 487 kts | 141° |
| 2026-02-20 13:12 | 15.24716 | 64.63796 | 39385 ft | 491 kts | 141° |
| 2026-02-20 13:12 | 14.76079 | 65.04876 | 39450 ft | 491 kts | 141° |
| 2026-02-20 13:13 | 14.67355 | 65.12224 | 39466 ft | 492 kts | 140° |
| 2026-02-20 13:13 | 14.62053 | 65.16702 | 39471 ft | 492 kts | 141° |
| 2026-02-20 13:14 | 14.56749 | 65.21172 | 39472 ft | 492 kts | 141° |
| 2026-02-20 13:14 | 14.51437 | 65.25637 | 39476 ft | 493 kts | 141° |
| 2026-02-20 13:15 | 14.46153 | 65.30072 | 39474 ft | 493 kts | 141° |
| 2026-02-20 13:15 | 14.40840 | 65.34530 | 39475 ft | 493 kts | 141° |
| 2026-02-20 13:16 | 14.35516 | 65.38995 | 39473 ft | 493 kts | 141° |
| 2026-02-20 13:16 | 14.30201 | 65.43451 | 39474 ft | 493 kts | 141° |
| 2026-02-20 13:17 | 14.22251 | 65.50111 | 39470 ft | 493 kts | 141° |
| 2026-02-20 13:17 | 14.16921 | 65.54571 | 39473 ft | 493 kts | 141° |
| 2026-02-20 13:18 | 14.11596 | 65.59025 | 39467 ft | 493 kts | 141° |
| 2026-02-20 13:18 | 14.06299 | 65.63453 | 39471 ft | 493 kts | 141° |
| 2026-02-20 13:19 | 14.00970 | 65.67906 | 39472 ft | 493 kts | 141° |
| 2026-02-20 13:19 | 13.95646 | 65.72351 | 39469 ft | 493 kts | 141° |
| 2026-02-20 13:20 | 13.90308 | 65.76805 | 39470 ft | 493 kts | 141° |
| 2026-02-20 13:20 | 13.84976 | 65.81250 | 39469 ft | 493 kts | 141° |
| 2026-02-20 13:21 | 13.79681 | 65.85663 | 39465 ft | 493 kts | 141° |
| 2026-02-20 13:21 | 13.74356 | 65.90098 | 39466 ft | 493 kts | 141° |
| 2026-02-20 13:22 | 13.69022 | 65.94539 | 39467 ft | 493 kts | 141° |
| 2026-02-20 13:22 | 13.63697 | 65.98969 | 39463 ft | 493 kts | 141° |
| 2026-02-20 13:23 | 13.58408 | 66.03365 | 39466 ft | 492 kts | 141° |
| 2026-02-20 13:23 | 13.53084 | 66.07788 | 39467 ft | 492 kts | 141° |
| 2026-02-20 13:24 | 13.47756 | 66.12212 | 39466 ft | 492 kts | 141° |
| 2026-02-20 13:24 | 13.45094 | 66.14421 | 39567 ft | 489 kts | 141° |
| 2026-02-20 13:24 | 13.42462 | 66.16605 | 39796 ft | 485 kts | 141° |
| 2026-02-20 13:25 | 13.39879 | 66.18748 | 39983 ft | 482 kts | 141° |
| 2026-02-20 13:25 | 13.37277 | 66.20906 | 40118 ft | 481 kts | 141° |
| 2026-02-20 13:25 | 13.34673 | 66.23065 | 40234 ft | 480 kts | 141° |
| 2026-02-20 13:25 | 13.32076 | 66.25218 | 40356 ft | 480 kts | 141° |
| 2026-02-20 13:26 | 13.29480 | 66.27369 | 40464 ft | 479 kts | 141° |
| 2026-02-20 13:26 | 13.26886 | 66.29517 | 40529 ft | 479 kts | 141° |
| 2026-02-20 13:26 | 13.24298 | 66.31661 | 40641 ft | 479 kts | 141° |
| 2026-02-20 13:26 | 13.21705 | 66.33808 | 40743 ft | 478 kts | 141° |
| 2026-02-20 13:27 | 13.16560 | 66.38065 | 40918 ft | 478 kts | 141° |
| 2026-02-20 13:27 | 13.11391 | 66.42341 | 40959 ft | 479 kts | 141° |
| 2026-02-20 13:28 | 13.06191 | 66.46640 | 40961 ft | 481 kts | 141° |
| 2026-02-20 13:28 | 13.00975 | 66.50949 | 40956 ft | 483 kts | 141° |
| 2026-02-20 13:29 | 12.95777 | 66.55240 | 40958 ft | 483 kts | 141° |
| 2026-02-20 13:29 | 12.90533 | 66.59568 | 40958 ft | 484 kts | 141° |
| 2026-02-20 13:30 | 12.85294 | 66.63889 | 40956 ft | 484 kts | 141° |
| 2026-02-20 13:30 | 12.80042 | 66.68218 | 40957 ft | 484 kts | 141° |
| 2026-02-20 13:31 | 12.74829 | 66.72512 | 40954 ft | 484 kts | 141° |
| 2026-02-20 13:31 | 12.69583 | 66.76832 | 40955 ft | 484 kts | 141° |
| 2026-02-20 13:32 | 12.64337 | 66.81149 | 40957 ft | 484 kts | 141° |
| 2026-02-20 13:33 | 12.56473 | 66.87618 | 40954 ft | 484 kts | 141° |
| 2026-02-20 13:33 | 12.51262 | 66.91900 | 40956 ft | 483 kts | 141° |
| 2026-02-20 13:34 | 12.46015 | 66.96210 | 40955 ft | 483 kts | 141° |
| 2026-02-20 13:34 | 12.40774 | 67.00513 | 40954 ft | 483 kts | 141° |
| 2026-02-20 13:35 | 12.35537 | 67.04810 | 40954 ft | 483 kts | 141° |
| 2026-02-20 13:35 | 12.30336 | 67.09075 | 40956 ft | 482 kts | 141° |
| 2026-02-20 13:36 | 12.25097 | 67.13369 | 40956 ft | 482 kts | 141° |
| 2026-02-20 13:36 | 12.19864 | 67.17656 | 40955 ft | 482 kts | 141° |
| 2026-02-20 13:37 | 12.14628 | 67.21943 | 40952 ft | 482 kts | 141° |
| 2026-02-20 13:37 | 12.09425 | 67.26201 | 40954 ft | 482 kts | 141° |
| 2026-02-20 13:38 | 12.04185 | 67.30488 | 40952 ft | 482 kts | 141° |
| 2026-02-20 13:38 | 11.98948 | 67.34769 | 40952 ft | 482 kts | 141° |
| 2026-02-20 13:39 | 11.93710 | 67.39051 | 40950 ft | 482 kts | 141° |
| 2026-02-20 13:39 | 11.88504 | 67.43304 | 40953 ft | 482 kts | 141° |
| 2026-02-20 13:40 | 11.83264 | 67.47581 | 40946 ft | 482 kts | 141° |
| 2026-02-20 13:40 | 11.78019 | 67.51861 | 40950 ft | 483 kts | 141° |
| 2026-02-20 13:41 | 11.72774 | 67.56139 | 40947 ft | 483 kts | 141° |
| 2026-02-20 13:41 | 11.67529 | 67.60416 | 40944 ft | 483 kts | 141° |
| 2026-02-20 13:42 | 11.62314 | 67.64666 | 40943 ft | 483 kts | 141° |
| 2026-02-20 13:42 | 11.57059 | 67.68946 | 40944 ft | 483 kts | 141° |
| 2026-02-20 13:43 | 11.51808 | 67.73221 | 40947 ft | 483 kts | 141° |
| 2026-02-20 13:43 | 11.46549 | 67.77500 | 40942 ft | 484 kts | 141° |
| 2026-02-20 13:44 | 11.41327 | 67.81747 | 40940 ft | 484 kts | 140° |
| 2026-02-20 13:44 | 11.36069 | 67.86022 | 40941 ft | 484 kts | 140° |
| 2026-02-20 13:45 | 11.30798 | 67.90305 | 40942 ft | 484 kts | 140° |
| 2026-02-20 13:45 | 11.25536 | 67.94578 | 40939 ft | 484 kts | 140° |
| 2026-02-20 13:46 | 11.20303 | 67.98827 | 40938 ft | 484 kts | 140° |
| 2026-02-20 13:46 | 11.15034 | 68.03102 | 40941 ft | 484 kts | 140° |
| 2026-02-20 13:47 | 11.09762 | 68.07377 | 40938 ft | 484 kts | 140° |
| 2026-02-20 13:47 | 11.04493 | 68.11649 | 40940 ft | 484 kts | 140° |
| 2026-02-20 13:48 | 10.99253 | 68.15894 | 40940 ft | 484 kts | 140° |
| 2026-02-20 13:48 | 10.93981 | 68.20163 | 40938 ft | 484 kts | 140° |
| 2026-02-20 13:49 | 10.88713 | 68.24428 | 40938 ft | 484 kts | 140° |
| 2026-02-20 13:49 | 10.83433 | 68.28700 | 40936 ft | 484 kts | 140° |
| 2026-02-20 13:50 | 10.78160 | 68.32965 | 40933 ft | 484 kts | 140° |
| 2026-02-20 13:50 | 10.72921 | 68.37200 | 40937 ft | 484 kts | 140° |
| 2026-02-20 13:51 | 10.67651 | 68.41457 | 40936 ft | 484 kts | 140° |
| 2026-02-20 13:51 | 10.62376 | 68.45718 | 40934 ft | 484 kts | 140° |
| 2026-02-20 13:52 | 10.57104 | 68.49973 | 40932 ft | 484 kts | 140° |
| 2026-02-20 13:52 | 10.51868 | 68.54199 | 40937 ft | 484 kts | 140° |
| 2026-02-20 13:53 | 10.46603 | 68.58445 | 40936 ft | 483 kts | 140° |
| 2026-02-20 13:53 | 10.41331 | 68.62695 | 40934 ft | 483 kts | 140° |
| 2026-02-20 13:54 | 10.36059 | 68.66943 | 40935 ft | 484 kts | 140° |
| 2026-02-20 13:54 | 10.30791 | 68.71186 | 40933 ft | 484 kts | 139° |
| 2026-02-20 13:55 | 10.25557 | 68.75400 | 40933 ft | 484 kts | 139° |
| 2026-02-20 13:55 | 10.20279 | 68.79647 | 40933 ft | 484 kts | 139° |
| 2026-02-20 13:56 | 10.15001 | 68.83893 | 40929 ft | 484 kts | 139° |
| 2026-02-20 13:56 | 10.09721 | 68.88138 | 40928 ft | 484 kts | 139° |
| 2026-02-20 13:57 | 10.04478 | 68.92352 | 40927 ft | 484 kts | 139° |
| 2026-02-20 13:57 | 9.99193 | 68.96597 | 40931 ft | 484 kts | 139° |
| 2026-02-20 13:58 | 9.93909 | 69.00840 | 40927 ft | 485 kts | 139° |
| 2026-02-20 13:58 | 9.88623 | 69.05084 | 40925 ft | 485 kts | 139° |
| 2026-02-20 13:59 | 9.83367 | 69.09301 | 40926 ft | 485 kts | 139° |
| 2026-02-20 13:59 | 9.78075 | 69.13546 | 40924 ft | 485 kts | 139° |
| 2026-02-20 14:00 | 9.72785 | 69.17787 | 40923 ft | 485 kts | 139° |
| 2026-02-20 14:00 | 9.64835 | 69.24152 | 40924 ft | 485 kts | 139° |
| 2026-02-20 14:01 | 9.59568 | 69.28364 | 40925 ft | 486 kts | 139° |
| 2026-02-20 14:01 | 9.54270 | 69.32601 | 40928 ft | 486 kts | 139° |
| 2026-02-20 14:02 | 9.48965 | 69.36842 | 40929 ft | 486 kts | 139° |
| 2026-02-20 14:02 | 9.43663 | 69.41079 | 40924 ft | 486 kts | 139° |
| 2026-02-20 14:03 | 9.38389 | 69.45292 | 40926 ft | 486 kts | 139° |
| 2026-02-20 14:03 | 9.33086 | 69.49526 | 40924 ft | 486 kts | 139° |
| 2026-02-20 14:04 | 9.27775 | 69.53764 | 40922 ft | 486 kts | 139° |
| 2026-02-20 14:04 | 9.22472 | 69.57995 | 40924 ft | 485 kts | 140° |
| 2026-02-20 14:05 | 9.17170 | 69.62223 | 40924 ft | 485 kts | 140° |
| 2026-02-20 14:05 | 9.11899 | 69.66425 | 40926 ft | 485 kts | 140° |
| 2026-02-20 14:06 | 9.06603 | 69.70646 | 40922 ft | 485 kts | 140° |
| 2026-02-20 14:06 | 9.01301 | 69.74868 | 40921 ft | 485 kts | 140° |
| 2026-02-20 14:07 | 8.96007 | 69.79084 | 40925 ft | 485 kts | 140° |
| 2026-02-20 14:07 | 8.90709 | 69.83301 | 40922 ft | 484 kts | 140° |
| 2026-02-20 14:08 | 8.85450 | 69.87486 | 40921 ft | 484 kts | 140° |
| 2026-02-20 14:08 | 8.80164 | 69.91690 | 40922 ft | 484 kts | 140° |
| 2026-02-20 14:09 | 8.74872 | 69.95898 | 40921 ft | 483 kts | 140° |
| 2026-02-20 14:09 | 8.69588 | 70.00097 | 40919 ft | 483 kts | 140° |
| 2026-02-20 14:10 | 8.64345 | 70.04262 | 40920 ft | 483 kts | 140° |
| 2026-02-20 14:10 | 8.59071 | 70.08451 | 40919 ft | 482 kts | 140° |
| 2026-02-20 14:11 | 8.53796 | 70.12639 | 40919 ft | 482 kts | 139° |
| 2026-02-20 14:11 | 8.48525 | 70.16822 | 40920 ft | 482 kts | 139° |
| 2026-02-20 14:12 | 8.43293 | 70.20972 | 40920 ft | 481 kts | 139° |
| 2026-02-20 14:12 | 8.38027 | 70.25149 | 40920 ft | 481 kts | 139° |
| 2026-02-20 14:13 | 8.32764 | 70.29322 | 40917 ft | 481 kts | 139° |
| 2026-02-20 14:13 | 8.27504 | 70.33490 | 40919 ft | 481 kts | 139° |
| 2026-02-20 14:14 | 8.22244 | 70.37657 | 40919 ft | 480 kts | 139° |
| 2026-02-20 14:14 | 8.17023 | 70.41792 | 40917 ft | 480 kts | 139° |
| 2026-02-20 14:15 | 8.11770 | 70.45950 | 40918 ft | 480 kts | 139° |
| 2026-02-20 14:15 | 8.06521 | 70.50105 | 40917 ft | 479 kts | 139° |
| 2026-02-20 14:16 | 8.01273 | 70.54256 | 40914 ft | 479 kts | 139° |
| 2026-02-20 14:16 | 7.96059 | 70.58380 | 40915 ft | 479 kts | 139° |
| 2026-02-20 14:17 | 7.90816 | 70.62525 | 40918 ft | 479 kts | 139° |
| 2026-02-20 14:17 | 7.85571 | 70.66670 | 40915 ft | 479 kts | 139° |
| 2026-02-20 14:18 | 7.80331 | 70.70810 | 40915 ft | 479 kts | 139° |
| 2026-02-20 14:18 | 7.75121 | 70.74924 | 40914 ft | 479 kts | 139° |
| 2026-02-20 14:19 | 7.69884 | 70.79059 | 40915 ft | 478 kts | 139° |
| 2026-02-20 14:19 | 7.64642 | 70.83197 | 40915 ft | 478 kts | 139° |
| 2026-02-20 14:20 | 7.59403 | 70.87332 | 40918 ft | 478 kts | 139° |
| 2026-02-20 14:20 | 7.54166 | 70.91462 | 40917 ft | 478 kts | 139° |
| 2026-02-20 14:21 | 7.48965 | 70.95564 | 40916 ft | 478 kts | 139° |
| 2026-02-20 14:21 | 7.43723 | 70.99692 | 40914 ft | 478 kts | 139° |
| 2026-02-20 14:22 | 7.38484 | 71.03814 | 40917 ft | 478 kts | 139° |
| 2026-02-20 14:22 | 7.33247 | 71.07934 | 40914 ft | 478 kts | 139° |
| 2026-02-20 14:23 | 7.28038 | 71.12031 | 40918 ft | 478 kts | 139° |
| 2026-02-20 14:23 | 7.22801 | 71.16149 | 40913 ft | 478 kts | 139° |
| 2026-02-20 14:24 | 7.17561 | 71.20269 | 40916 ft | 478 kts | 139° |
| 2026-02-20 14:24 | 7.12323 | 71.24386 | 40914 ft | 478 kts | 139° |
| 2026-02-20 14:25 | 7.07087 | 71.28499 | 40918 ft | 478 kts | 139° |
| 2026-02-20 14:25 | 7.01876 | 71.32593 | 40917 ft | 478 kts | 139° |
| 2026-02-20 14:26 | 6.96639 | 71.36704 | 40915 ft | 478 kts | 139° |
| 2026-02-20 14:26 | 6.91393 | 71.40822 | 40914 ft | 478 kts | 139° |
| 2026-02-20 14:27 | 6.86151 | 71.44936 | 40915 ft | 478 kts | 139° |
| 2026-02-20 14:27 | 6.80904 | 71.49052 | 40914 ft | 478 kts | 139° |
| 2026-02-20 14:28 | 6.75700 | 71.53134 | 40915 ft | 478 kts | 139° |
| 2026-02-20 14:28 | 6.70454 | 71.57248 | 40915 ft | 478 kts | 139° |
| 2026-02-20 14:29 | 6.65209 | 71.61359 | 40914 ft | 478 kts | 139° |
| 2026-02-20 14:29 | 6.59974 | 71.65462 | 40913 ft | 478 kts | 139° |
| 2026-02-20 14:30 | 6.54764 | 71.69543 | 40914 ft | 477 kts | 139° |
| 2026-02-20 14:30 | 6.49527 | 71.73645 | 40912 ft | 477 kts | 139° |
| 2026-02-20 14:31 | 6.44293 | 71.77743 | 40915 ft | 477 kts | 139° |
| 2026-02-20 14:31 | 6.39057 | 71.81841 | 40914 ft | 476 kts | 139° |
| 2026-02-20 14:32 | 6.33868 | 71.85909 | 40915 ft | 476 kts | 139° |
| 2026-02-20 14:33 | 6.26028 | 71.92039 | 40912 ft | 476 kts | 139° |
| 2026-02-20 14:33 | 6.20809 | 71.96118 | 40906 ft | 475 kts | 139° |
| 2026-02-20 14:33 | 6.18206 | 71.98152 | 40775 ft | 474 kts | 139° |
| 2026-02-20 14:34 | 6.15612 | 72.00181 | 40388 ft | 474 kts | 139° |
| 2026-02-20 14:34 | 6.13006 | 72.02218 | 39838 ft | 476 kts | 139° |
| 2026-02-20 14:34 | 6.10425 | 72.04236 | 39323 ft | 478 kts | 139° |
| 2026-02-20 14:34 | 6.07785 | 72.06299 | 38683 ft | 480 kts | 139° |
| 2026-02-20 14:35 | 6.05146 | 72.08361 | 37856 ft | 483 kts | 139° |
| 2026-02-20 14:35 | 6.02487 | 72.10439 | 37278 ft | 486 kts | 139° |
| 2026-02-20 14:35 | 5.99814 | 72.12526 | 36777 ft | 490 kts | 139° |
| 2026-02-20 14:35 | 5.97105 | 72.14641 | 36512 ft | 493 kts | 140° |
| 2026-02-20 14:36 | 5.94401 | 72.16752 | 36309 ft | 494 kts | 140° |
| 2026-02-20 14:36 | 5.91694 | 72.18864 | 36082 ft | 495 kts | 140° |
| 2026-02-20 14:36 | 5.88962 | 72.20995 | 35836 ft | 497 kts | 140° |
| 2026-02-20 14:36 | 5.86265 | 72.23100 | 35615 ft | 498 kts | 140° |
| 2026-02-20 14:37 | 5.83545 | 72.25220 | 35302 ft | 495 kts | 140° |
| 2026-02-20 14:37 | 5.80815 | 72.27349 | 35024 ft | 498 kts | 140° |
| 2026-02-20 14:37 | 5.78072 | 72.29489 | 34745 ft | 501 kts | 140° |
| 2026-02-20 14:37 | 5.75304 | 72.31649 | 34474 ft | 504 kts | 140° |
| 2026-02-20 14:38 | 5.72538 | 72.33806 | 34198 ft | 505 kts | 140° |
| 2026-02-20 14:38 | 5.69755 | 72.35975 | 33933 ft | 507 kts | 140° |
| 2026-02-20 14:38 | 5.66966 | 72.38150 | 33617 ft | 509 kts | 140° |
| 2026-02-20 14:38 | 5.64171 | 72.40330 | 33316 ft | 510 kts | 140° |
| 2026-02-20 14:39 | 5.61397 | 72.42494 | 33022 ft | 511 kts | 140° |
| 2026-02-20 14:39 | 5.58586 | 72.44685 | 32725 ft | 513 kts | 140° |
| 2026-02-20 14:39 | 5.55770 | 72.46881 | 32440 ft | 514 kts | 140° |
| 2026-02-20 14:39 | 5.52947 | 72.49080 | 32145 ft | 515 kts | 140° |
| 2026-02-20 14:40 | 5.50110 | 72.51291 | 31855 ft | 516 kts | 140° |
| 2026-02-20 14:40 | 5.47280 | 72.53496 | 31574 ft | 517 kts | 140° |
| 2026-02-20 14:40 | 5.44435 | 72.55712 | 31286 ft | 518 kts | 140° |
| 2026-02-20 14:40 | 5.41587 | 72.57930 | 31020 ft | 519 kts | 141° |
| 2026-02-20 14:41 | 5.38733 | 72.60152 | 30759 ft | 520 kts | 141° |
| 2026-02-20 14:41 | 5.35871 | 72.62379 | 30475 ft | 520 kts | 141° |
| 2026-02-20 14:41 | 5.33979 | 72.63852 | 30295 ft | 521 kts | 141° |
| 2026-02-20 14:41 | 5.30559 | 72.66514 | 29979 ft | 521 kts | 141° |
| 2026-02-20 14:42 | 5.27693 | 72.68742 | 29663 ft | 520 kts | 141° |
| 2026-02-20 14:42 | 5.24839 | 72.70960 | 29343 ft | 518 kts | 141° |
| 2026-02-20 14:42 | 5.22002 | 72.73166 | 29041 ft | 516 kts | 141° |
| 2026-02-20 14:42 | 5.19167 | 72.75369 | 28722 ft | 513 kts | 141° |
| 2026-02-20 14:43 | 5.16357 | 72.77554 | 28416 ft | 511 kts | 141° |
| 2026-02-20 14:43 | 5.13555 | 72.79734 | 28125 ft | 509 kts | 141° |
| 2026-02-20 14:43 | 5.10755 | 72.81913 | 27817 ft | 507 kts | 141° |
| 2026-02-20 14:43 | 5.08919 | 72.83342 | 27634 ft | 505 kts | 141° |
| 2026-02-20 14:44 | 5.05752 | 72.85806 | 27293 ft | 503 kts | 141° |
| 2026-02-20 14:44 | 5.02906 | 72.88021 | 26985 ft | 501 kts | 141° |
| 2026-02-20 14:44 | 5.00162 | 72.90156 | 26701 ft | 499 kts | 141° |
| 2026-02-20 14:44 | 4.97498 | 72.92228 | 26411 ft | 497 kts | 141° |
| 2026-02-20 14:45 | 4.94777 | 72.94344 | 26145 ft | 495 kts | 141° |
| 2026-02-20 14:45 | 4.92059 | 72.96457 | 25861 ft | 493 kts | 141° |
| 2026-02-20 14:45 | 4.89353 | 72.98560 | 25586 ft | 491 kts | 141° |
| 2026-02-20 14:45 | 4.86662 | 73.00651 | 25323 ft | 489 kts | 141° |
| 2026-02-20 14:46 | 4.83979 | 73.02737 | 25042 ft | 486 kts | 141° |
| 2026-02-20 14:46 | 4.81349 | 73.04788 | 24777 ft | 484 kts | 141° |
| 2026-02-20 14:46 | 4.78698 | 73.06857 | 24513 ft | 482 kts | 141° |
| 2026-02-20 14:46 | 4.76053 | 73.08921 | 24238 ft | 481 kts | 141° |
| 2026-02-20 14:47 | 4.73424 | 73.10973 | 23985 ft | 479 kts | 141° |
| 2026-02-20 14:47 | 4.70805 | 73.13020 | 23725 ft | 477 kts | 141° |
| 2026-02-20 14:47 | 4.68192 | 73.15062 | 23467 ft | 476 kts | 141° |
| 2026-02-20 14:47 | 4.65587 | 73.17098 | 23157 ft | 474 kts | 142° |
| 2026-02-20 14:48 | 4.63861 | 73.18447 | 22939 ft | 473 kts | 142° |
| 2026-02-20 14:48 | 4.61267 | 73.20472 | 22559 ft | 472 kts | 142° |
| 2026-02-20 14:48 | 4.57874 | 73.23122 | 21663 ft | 459 kts | 142° |
| 2026-02-20 14:48 | 4.55369 | 73.25082 | 20624 ft | 456 kts | 142° |
| 2026-02-20 14:49 | 4.52876 | 73.27030 | 19334 ft | 452 kts | 142° |
| 2026-02-20 14:49 | 4.50410 | 73.28955 | 17966 ft | 446 kts | 142° |
| 2026-02-20 14:49 | 4.47980 | 73.30845 | 16482 ft | 438 kts | 142° |
| 2026-02-20 14:49 | 4.46398 | 73.32074 | 15540 ft | 434 kts | 142° |
| 2026-02-20 14:50 | 4.43240 | 73.34527 | 13717 ft | 422 kts | 141° |
| 2026-02-20 14:50 | 4.41719 | 73.35713 | 12754 ft | 414 kts | 141° |
| 2026-02-20 14:50 | 4.39489 | 73.37455 | 11649 ft | 396 kts | 141° |
| 2026-02-20 14:50 | 4.37181 | 73.38819 | 10791 ft | 378 kts | 159° |
| 2026-02-20 14:51 | 4.34894 | 73.39245 | 10169 ft | 360 kts | 179° |
| 2026-02-20 14:51 | 4.32524 | 73.38779 | 9479 ft | 342 kts | 203° |
| 2026-02-20 14:51 | 4.30220 | 73.36864 | 8746 ft | 315 kts | 234° |
| 2026-02-20 14:51 | 4.29358 | 73.35733 | 8440 ft | 305 kts | 227° |
| 2026-02-20 14:52 | 4.27691 | 73.34473 | 7972 ft | 299 kts | 210° |
| 2026-02-20 14:52 | 4.25809 | 73.33592 | 7484 ft | 297 kts | 199° |
| 2026-02-20 14:52 | 4.23831 | 73.33020 | 7029 ft | 294 kts | 190° |
| 2026-02-20 14:52 | 4.21825 | 73.32721 | 6561 ft | 290 kts | 182° |
| 2026-02-20 14:53 | 4.19825 | 73.32665 | 6130 ft | 285 kts | 176° |
| 2026-02-20 14:53 | 4.17860 | 73.32826 | 5866 ft | 283 kts | 170° |
| 2026-02-20 14:53 | 4.15914 | 73.33187 | 5623 ft | 284 kts | 164° |
| 2026-02-20 14:53 | 4.14042 | 73.33731 | 5380 ft | 279 kts | 158° |
| 2026-02-20 14:54 | 4.12256 | 73.34446 | 5133 ft | 275 kts | 152° |
| 2026-02-20 14:54 | 4.10556 | 73.35326 | 4905 ft | 274 kts | 147° |
| 2026-02-20 14:54 | 4.08978 | 73.36342 | 4593 ft | 273 kts | 142° |
| 2026-02-20 14:54 | 4.07484 | 73.37514 | 4107 ft | 273 kts | 136° |
| 2026-02-20 14:55 | 4.06110 | 73.38825 | 3627 ft | 273 kts | 130° |
| 2026-02-20 14:55 | 4.04878 | 73.40258 | 3192 ft | 270 kts | 124° |
| 2026-02-20 14:55 | 4.03814 | 73.41766 | 3011 ft | 258 kts | 119° |
| 2026-02-20 14:55 | 4.02917 | 73.43307 | 2991 ft | 255 kts | 114° |
| 2026-02-20 14:56 | 4.02169 | 73.44884 | 2988 ft | 253 kts | 109° |
| 2026-02-20 14:56 | 4.01555 | 73.46534 | 2984 ft | 253 kts | 105° |
| 2026-02-20 14:56 | 4.01008 | 73.48171 | 2981 ft | 242 kts | 108° |
| 2026-02-20 14:56 | 4.00205 | 73.49597 | 2991 ft | 227 kts | 118° |
| 2026-02-20 14:57 | 3.99633 | 73.50970 | 2980 ft | 203 kts | 90° |
| 2026-02-20 14:57 | 4.00020 | 73.52210 | 2995 ft | 182 kts | 48° |
| 2026-02-20 14:57 | 4.01033 | 73.52830 | 3078 ft | 165 kts | 27° |
| 2026-02-20 14:57 | 4.02151 | 73.53089 | 3026 ft | 167 kts | 9° |
| 2026-02-20 14:58 | 4.03325 | 73.53106 | 2999 ft | 169 kts | 5° |
| 2026-02-20 14:58 | 4.04505 | 73.53102 | 2988 ft | 169 kts | 5° |
| 2026-02-20 14:58 | 4.05677 | 73.53098 | 2911 ft | 165 kts | 5° |
| 2026-02-20 14:58 | 4.06766 | 73.53097 | 2675 ft | 157 kts | 5° |
| 2026-02-20 14:59 | 4.07825 | 73.53104 | 2403 ft | 151 kts | 5° |
| 2026-02-20 14:59 | 4.08841 | 73.53106 | 2157 ft | 142 kts | 5° |
| 2026-02-20 14:59 | 4.09819 | 73.53108 | 1842 ft | 141 kts | 5° |
| 2026-02-20 14:59 | 4.10810 | 73.53108 | 1531 ft | 143 kts | 5° |
| 2026-02-20 15:00 | 4.11788 | 73.53105 | 1317 ft | 138 kts | 5° |
| 2026-02-20 15:00 | 4.12718 | 73.53107 | 1143 ft | 132 kts | 5° |
| 2026-02-20 15:00 | 4.13638 | 73.53107 | 968 ft | 133 kts | 5° |
| 2026-02-20 15:00 | 4.14572 | 73.53105 | 804 ft | 137 kts | 5° |
| 2026-02-20 15:01 | 4.15533 | 73.53102 | 685 ft | 138 kts | 5° |
| 2026-02-20 15:01 | 4.16505 | 73.53083 | 388 ft | 143 kts | 3° |
| 2026-02-20 15:01 | 4.17477 | 73.53073 | 183 ft | 136 kts | 6° |
| 2026-02-20 15:01 | 4.18406 | 73.53088 | 57 ft | 133 kts | 7° |
| 2026-02-20 15:02 | 4.18717 | 73.53094 | 29 ft | 133 kts | 7° |